<?xml version="1.0" encoding="UTF-8" standalone="no" ?>
<gpx xmlns="http://www.topografix.com/GPX/1/1" xmlns:xsi="http://www.w3.org/2001/XMLSchema-instance" xsi:schemaLocation="http://www.topografix.com/GPX/1/1 http://www.topografix.com/GPX/1/1/gpx.xsd" version="1.1" creator="VisuGPX - https://www.visugpx.com">
  <metadata>
    <name>Barbizon - 3 Pignons</name>
    <desc><![CDATA[Circuit VTT, beaucoup de monotraces.]]></desc>
  </metadata>
  <trk>
    <name><![CDATA[GPSport260-20121104-08:01]]></name>
    <trkseg>
      <trkpt lat="48.44055" lon="2.62401">
        <ele>-7</ele>
        <time>2012-11-04T07:01:36Z</time>
      </trkpt>
      <trkpt lat="48.44031" lon="2.62392">
        <ele>-7</ele>
        <time>2012-11-04T07:01:45Z</time>
      </trkpt>
      <trkpt lat="48.44052" lon="2.62401">
        <ele>-7</ele>
        <time>2012-11-04T07:01:55Z</time>
      </trkpt>
      <trkpt lat="48.44049" lon="2.62408">
        <ele>-6</ele>
        <time>2012-11-04T07:02:20Z</time>
      </trkpt>
      <trkpt lat="48.44066" lon="2.62429">
        <ele>101</ele>
        <time>2012-11-04T07:03:23Z</time>
      </trkpt>
      <trkpt lat="48.44056" lon="2.62423">
        <ele>102</ele>
        <time>2012-11-04T07:07:16Z</time>
      </trkpt>
      <trkpt lat="48.44058" lon="2.62423">
        <ele>102</ele>
        <time>2012-11-04T07:10:06Z</time>
      </trkpt>
      <trkpt lat="48.44093" lon="2.6245">
        <ele>101</ele>
        <time>2012-11-04T07:11:26Z</time>
      </trkpt>
      <trkpt lat="48.44081" lon="2.6257">
        <ele>103</ele>
        <time>2012-11-04T07:11:55Z</time>
      </trkpt>
      <trkpt lat="48.44048" lon="2.62717">
        <ele>104</ele>
        <time>2012-11-04T07:12:23Z</time>
      </trkpt>
      <trkpt lat="48.44049" lon="2.6275">
        <ele>104</ele>
        <time>2012-11-04T07:12:33Z</time>
      </trkpt>
      <trkpt lat="48.44057" lon="2.62769">
        <ele>103</ele>
        <time>2012-11-04T07:13:37Z</time>
      </trkpt>
      <trkpt lat="48.44056" lon="2.62868">
        <ele>104</ele>
        <time>2012-11-04T07:15:06Z</time>
      </trkpt>
      <trkpt lat="48.44068" lon="2.62962">
        <ele>103</ele>
        <time>2012-11-04T07:15:23Z</time>
      </trkpt>
      <trkpt lat="48.44067" lon="2.63036">
        <ele>103</ele>
        <time>2012-11-04T07:15:35Z</time>
      </trkpt>
      <trkpt lat="48.44028" lon="2.63222">
        <ele>105</ele>
        <time>2012-11-04T07:16:07Z</time>
      </trkpt>
      <trkpt lat="48.44025" lon="2.63299">
        <ele>105</ele>
        <time>2012-11-04T07:16:18Z</time>
      </trkpt>
      <trkpt lat="48.44006" lon="2.634">
        <ele>104</ele>
        <time>2012-11-04T07:16:39Z</time>
      </trkpt>
      <trkpt lat="48.43989" lon="2.63612">
        <ele>103</ele>
        <time>2012-11-04T07:17:15Z</time>
      </trkpt>
      <trkpt lat="48.4396" lon="2.63845">
        <ele>105</ele>
        <time>2012-11-04T07:17:54Z</time>
      </trkpt>
      <trkpt lat="48.4393" lon="2.63977">
        <ele>105</ele>
        <time>2012-11-04T07:18:16Z</time>
      </trkpt>
      <trkpt lat="48.43911" lon="2.6411">
        <ele>105</ele>
        <time>2012-11-04T07:18:37Z</time>
      </trkpt>
      <trkpt lat="48.43885" lon="2.64262">
        <ele>106</ele>
        <time>2012-11-04T07:19:00Z</time>
      </trkpt>
      <trkpt lat="48.43837" lon="2.64287">
        <ele>106</ele>
        <time>2012-11-04T07:19:14Z</time>
      </trkpt>
      <trkpt lat="48.43809" lon="2.64315">
        <ele>107</ele>
        <time>2012-11-04T07:19:22Z</time>
      </trkpt>
      <trkpt lat="48.4378" lon="2.64332">
        <ele>108</ele>
        <time>2012-11-04T07:19:30Z</time>
      </trkpt>
      <trkpt lat="48.43743" lon="2.64343">
        <ele>109</ele>
        <time>2012-11-04T07:19:40Z</time>
      </trkpt>
      <trkpt lat="48.43717" lon="2.64339">
        <ele>110</ele>
        <time>2012-11-04T07:19:47Z</time>
      </trkpt>
      <trkpt lat="48.43691" lon="2.64346">
        <ele>111</ele>
        <time>2012-11-04T07:19:54Z</time>
      </trkpt>
      <trkpt lat="48.43637" lon="2.64387">
        <ele>112</ele>
        <time>2012-11-04T07:20:10Z</time>
      </trkpt>
      <trkpt lat="48.43593" lon="2.64288">
        <ele>117</ele>
        <time>2012-11-04T07:20:41Z</time>
      </trkpt>
      <trkpt lat="48.43564" lon="2.6427">
        <ele>119</ele>
        <time>2012-11-04T07:20:55Z</time>
      </trkpt>
      <trkpt lat="48.43552" lon="2.64255">
        <ele>120</ele>
        <time>2012-11-04T07:21:00Z</time>
      </trkpt>
      <trkpt lat="48.43525" lon="2.64164">
        <ele>121</ele>
        <time>2012-11-04T07:21:25Z</time>
      </trkpt>
      <trkpt lat="48.43509" lon="2.64155">
        <ele>120</ele>
        <time>2012-11-04T07:21:31Z</time>
      </trkpt>
      <trkpt lat="48.43442" lon="2.64158">
        <ele>114</ele>
        <time>2012-11-04T07:21:46Z</time>
      </trkpt>
      <trkpt lat="48.43436" lon="2.64175">
        <ele>113</ele>
        <time>2012-11-04T07:21:51Z</time>
      </trkpt>
      <trkpt lat="48.43435" lon="2.6421">
        <ele>112</ele>
        <time>2012-11-04T07:21:57Z</time>
      </trkpt>
      <trkpt lat="48.43422" lon="2.64237">
        <ele>112</ele>
        <time>2012-11-04T07:22:02Z</time>
      </trkpt>
      <trkpt lat="48.4341" lon="2.6429">
        <ele>111</ele>
        <time>2012-11-04T07:22:11Z</time>
      </trkpt>
      <trkpt lat="48.43394" lon="2.64324">
        <ele>110</ele>
        <time>2012-11-04T07:22:17Z</time>
      </trkpt>
      <trkpt lat="48.4338" lon="2.64387">
        <ele>109</ele>
        <time>2012-11-04T07:22:26Z</time>
      </trkpt>
      <trkpt lat="48.43348" lon="2.64449">
        <ele>109</ele>
        <time>2012-11-04T07:22:39Z</time>
      </trkpt>
      <trkpt lat="48.43263" lon="2.64527">
        <ele>110</ele>
        <time>2012-11-04T07:23:06Z</time>
      </trkpt>
      <trkpt lat="48.43266" lon="2.64581">
        <ele>110</ele>
        <time>2012-11-04T07:23:15Z</time>
      </trkpt>
      <trkpt lat="48.43288" lon="2.64704">
        <ele>110</ele>
        <time>2012-11-04T07:23:37Z</time>
      </trkpt>
      <trkpt lat="48.43285" lon="2.64727">
        <ele>110</ele>
        <time>2012-11-04T07:23:41Z</time>
      </trkpt>
      <trkpt lat="48.43229" lon="2.6477">
        <ele>110</ele>
        <time>2012-11-04T07:23:58Z</time>
      </trkpt>
      <trkpt lat="48.43204" lon="2.6478">
        <ele>110</ele>
        <time>2012-11-04T07:24:05Z</time>
      </trkpt>
      <trkpt lat="48.43187" lon="2.64801">
        <ele>111</ele>
        <time>2012-11-04T07:24:10Z</time>
      </trkpt>
      <trkpt lat="48.43165" lon="2.64808">
        <ele>111</ele>
        <time>2012-11-04T07:24:15Z</time>
      </trkpt>
      <trkpt lat="48.43124" lon="2.64842">
        <ele>112</ele>
        <time>2012-11-04T07:24:26Z</time>
      </trkpt>
      <trkpt lat="48.43107" lon="2.6485">
        <ele>112</ele>
        <time>2012-11-04T07:24:30Z</time>
      </trkpt>
      <trkpt lat="48.43098" lon="2.64848">
        <ele>112</ele>
        <time>2012-11-04T07:24:33Z</time>
      </trkpt>
      <trkpt lat="48.4306" lon="2.64726">
        <ele>113</ele>
        <time>2012-11-04T07:24:58Z</time>
      </trkpt>
      <trkpt lat="48.4304" lon="2.6469">
        <ele>115</ele>
        <time>2012-11-04T07:25:06Z</time>
      </trkpt>
      <trkpt lat="48.43016" lon="2.6466">
        <ele>116</ele>
        <time>2012-11-04T07:25:15Z</time>
      </trkpt>
      <trkpt lat="48.42979" lon="2.64639">
        <ele>118</ele>
        <time>2012-11-04T07:25:30Z</time>
      </trkpt>
      <trkpt lat="48.42963" lon="2.64619">
        <ele>119</ele>
        <time>2012-11-04T07:25:38Z</time>
      </trkpt>
      <trkpt lat="48.42918" lon="2.64612">
        <ele>123</ele>
        <time>2012-11-04T07:26:01Z</time>
      </trkpt>
      <trkpt lat="48.42874" lon="2.64644">
        <ele>134</ele>
        <time>2012-11-04T07:26:35Z</time>
      </trkpt>
      <trkpt lat="48.42873" lon="2.64656">
        <ele>134</ele>
        <time>2012-11-04T07:26:40Z</time>
      </trkpt>
      <trkpt lat="48.42857" lon="2.64675">
        <ele>137</ele>
        <time>2012-11-04T07:27:04Z</time>
      </trkpt>
      <trkpt lat="48.42852" lon="2.6467">
        <ele>138</ele>
        <time>2012-11-04T07:27:07Z</time>
      </trkpt>
      <trkpt lat="48.42852" lon="2.6467">
        <ele>138</ele>
        <time>2012-11-04T07:27:08Z</time>
      </trkpt>
      <trkpt lat="48.42824" lon="2.64726">
        <ele>144</ele>
        <time>2012-11-04T07:27:44Z</time>
      </trkpt>
      <trkpt lat="48.42752" lon="2.64713">
        <ele>150</ele>
        <time>2012-11-04T07:28:21Z</time>
      </trkpt>
      <trkpt lat="48.42712" lon="2.64729">
        <ele>147</ele>
        <time>2012-11-04T07:28:44Z</time>
      </trkpt>
      <trkpt lat="48.42663" lon="2.64737">
        <ele>144</ele>
        <time>2012-11-04T07:28:53Z</time>
      </trkpt>
      <trkpt lat="48.42606" lon="2.64737">
        <ele>140</ele>
        <time>2012-11-04T07:29:01Z</time>
      </trkpt>
      <trkpt lat="48.42594" lon="2.64741">
        <ele>139</ele>
        <time>2012-11-04T07:29:03Z</time>
      </trkpt>
      <trkpt lat="48.42573" lon="2.64731">
        <ele>137</ele>
        <time>2012-11-04T07:29:17Z</time>
      </trkpt>
      <trkpt lat="48.4257" lon="2.64741">
        <ele>137</ele>
        <time>2012-11-04T07:29:45Z</time>
      </trkpt>
      <trkpt lat="48.42557" lon="2.64751">
        <ele>137</ele>
        <time>2012-11-04T07:29:52Z</time>
      </trkpt>
      <trkpt lat="48.42524" lon="2.64749">
        <ele>139</ele>
        <time>2012-11-04T07:30:02Z</time>
      </trkpt>
      <trkpt lat="48.42508" lon="2.64755">
        <ele>141</ele>
        <time>2012-11-04T07:30:10Z</time>
      </trkpt>
      <trkpt lat="48.42484" lon="2.64795">
        <ele>146</ele>
        <time>2012-11-04T07:30:24Z</time>
      </trkpt>
      <trkpt lat="48.42469" lon="2.64837">
        <ele>149</ele>
        <time>2012-11-04T07:30:35Z</time>
      </trkpt>
      <trkpt lat="48.4245" lon="2.64842">
        <ele>150</ele>
        <time>2012-11-04T07:30:41Z</time>
      </trkpt>
      <trkpt lat="48.42438" lon="2.64834">
        <ele>150</ele>
        <time>2012-11-04T07:30:44Z</time>
      </trkpt>
      <trkpt lat="48.42384" lon="2.64824">
        <ele>151</ele>
        <time>2012-11-04T07:31:01Z</time>
      </trkpt>
      <trkpt lat="48.42371" lon="2.64828">
        <ele>151</ele>
        <time>2012-11-04T07:31:07Z</time>
      </trkpt>
      <trkpt lat="48.42354" lon="2.64848">
        <ele>151</ele>
        <time>2012-11-04T07:31:14Z</time>
      </trkpt>
      <trkpt lat="48.42311" lon="2.64859">
        <ele>151</ele>
        <time>2012-11-04T07:31:36Z</time>
      </trkpt>
      <trkpt lat="48.42228" lon="2.64958">
        <ele>150</ele>
        <time>2012-11-04T07:32:06Z</time>
      </trkpt>
      <trkpt lat="48.42202" lon="2.6503">
        <ele>150</ele>
        <time>2012-11-04T07:32:18Z</time>
      </trkpt>
      <trkpt lat="48.42157" lon="2.65088">
        <ele>150</ele>
        <time>2012-11-04T07:32:33Z</time>
      </trkpt>
      <trkpt lat="48.4214" lon="2.65096">
        <ele>149</ele>
        <time>2012-11-04T07:32:38Z</time>
      </trkpt>
      <trkpt lat="48.42133" lon="2.65059">
        <ele>149</ele>
        <time>2012-11-04T07:32:46Z</time>
      </trkpt>
      <trkpt lat="48.42134" lon="2.64932">
        <ele>148</ele>
        <time>2012-11-04T07:33:06Z</time>
      </trkpt>
      <trkpt lat="48.42127" lon="2.64867">
        <ele>148</ele>
        <time>2012-11-04T07:33:15Z</time>
      </trkpt>
      <trkpt lat="48.421" lon="2.64787">
        <ele>149</ele>
        <time>2012-11-04T07:33:26Z</time>
      </trkpt>
      <trkpt lat="48.42082" lon="2.64698">
        <ele>150</ele>
        <time>2012-11-04T07:33:37Z</time>
      </trkpt>
      <trkpt lat="48.42071" lon="2.64368">
        <ele>151</ele>
        <time>2012-11-04T07:34:15Z</time>
      </trkpt>
      <trkpt lat="48.42041" lon="2.64114">
        <ele>151</ele>
        <time>2012-11-04T07:34:48Z</time>
      </trkpt>
      <trkpt lat="48.42036" lon="2.63906">
        <ele>150</ele>
        <time>2012-11-04T07:35:26Z</time>
      </trkpt>
      <trkpt lat="48.42029" lon="2.63821">
        <ele>149</ele>
        <time>2012-11-04T07:35:39Z</time>
      </trkpt>
      <trkpt lat="48.4202" lon="2.63752">
        <ele>149</ele>
        <time>2012-11-04T07:35:50Z</time>
      </trkpt>
      <trkpt lat="48.4202" lon="2.63717">
        <ele>149</ele>
        <time>2012-11-04T07:36:26Z</time>
      </trkpt>
      <trkpt lat="48.42029" lon="2.63711">
        <ele>148</ele>
        <time>2012-11-04T07:37:03Z</time>
      </trkpt>
      <trkpt lat="48.42031" lon="2.637">
        <ele>148</ele>
        <time>2012-11-04T07:37:11Z</time>
      </trkpt>
      <trkpt lat="48.42025" lon="2.63636">
        <ele>148</ele>
        <time>2012-11-04T07:37:23Z</time>
      </trkpt>
      <trkpt lat="48.42035" lon="2.63486">
        <ele>147</ele>
        <time>2012-11-04T07:37:45Z</time>
      </trkpt>
      <trkpt lat="48.42049" lon="2.63423">
        <ele>145</ele>
        <time>2012-11-04T07:37:53Z</time>
      </trkpt>
      <trkpt lat="48.42054" lon="2.63362">
        <ele>141</ele>
        <time>2012-11-04T07:37:59Z</time>
      </trkpt>
      <trkpt lat="48.42054" lon="2.63313">
        <ele>137</ele>
        <time>2012-11-04T07:38:03Z</time>
      </trkpt>
      <trkpt lat="48.42042" lon="2.63244">
        <ele>133</ele>
        <time>2012-11-04T07:38:08Z</time>
      </trkpt>
      <trkpt lat="48.42042" lon="2.63179">
        <ele>130</ele>
        <time>2012-11-04T07:38:13Z</time>
      </trkpt>
      <trkpt lat="48.42054" lon="2.62931">
        <ele>123</ele>
        <time>2012-11-04T07:38:35Z</time>
      </trkpt>
      <trkpt lat="48.42039" lon="2.62905">
        <ele>123</ele>
        <time>2012-11-04T07:38:40Z</time>
      </trkpt>
      <trkpt lat="48.41967" lon="2.62847">
        <ele>129</ele>
        <time>2012-11-04T07:39:04Z</time>
      </trkpt>
      <trkpt lat="48.41962" lon="2.62848">
        <ele>131</ele>
        <time>2012-11-04T07:39:07Z</time>
      </trkpt>
      <trkpt lat="48.41952" lon="2.62878">
        <ele>135</ele>
        <time>2012-11-04T07:39:18Z</time>
      </trkpt>
      <trkpt lat="48.41935" lon="2.62898">
        <ele>138</ele>
        <time>2012-11-04T07:39:28Z</time>
      </trkpt>
      <trkpt lat="48.41902" lon="2.62907">
        <ele>143</ele>
        <time>2012-11-04T07:39:44Z</time>
      </trkpt>
      <trkpt lat="48.41878" lon="2.62875">
        <ele>146</ele>
        <time>2012-11-04T07:39:58Z</time>
      </trkpt>
      <trkpt lat="48.41778" lon="2.62829">
        <ele>150</ele>
        <time>2012-11-04T07:40:31Z</time>
      </trkpt>
      <trkpt lat="48.4166" lon="2.62786">
        <ele>146</ele>
        <time>2012-11-04T07:40:57Z</time>
      </trkpt>
      <trkpt lat="48.41638" lon="2.62766">
        <ele>143</ele>
        <time>2012-11-04T07:41:01Z</time>
      </trkpt>
      <trkpt lat="48.41601" lon="2.62723">
        <ele>138</ele>
        <time>2012-11-04T07:41:07Z</time>
      </trkpt>
      <trkpt lat="48.41586" lon="2.62684">
        <ele>134</ele>
        <time>2012-11-04T07:41:11Z</time>
      </trkpt>
      <trkpt lat="48.41594" lon="2.62607">
        <ele>128</ele>
        <time>2012-11-04T07:41:18Z</time>
      </trkpt>
      <trkpt lat="48.41601" lon="2.6259">
        <ele>126</ele>
        <time>2012-11-04T07:41:20Z</time>
      </trkpt>
      <trkpt lat="48.41595" lon="2.62551">
        <ele>123</ele>
        <time>2012-11-04T07:41:24Z</time>
      </trkpt>
      <trkpt lat="48.4157" lon="2.62483">
        <ele>121</ele>
        <time>2012-11-04T07:41:36Z</time>
      </trkpt>
      <trkpt lat="48.41541" lon="2.62461">
        <ele>122</ele>
        <time>2012-11-04T07:41:49Z</time>
      </trkpt>
      <trkpt lat="48.41526" lon="2.62462">
        <ele>124</ele>
        <time>2012-11-04T07:42:02Z</time>
      </trkpt>
      <trkpt lat="48.41536" lon="2.62454">
        <ele>124</ele>
        <time>2012-11-04T07:42:11Z</time>
      </trkpt>
      <trkpt lat="48.41525" lon="2.62436">
        <ele>124</ele>
        <time>2012-11-04T07:42:17Z</time>
      </trkpt>
      <trkpt lat="48.41452" lon="2.6237">
        <ele>133</ele>
        <time>2012-11-04T07:42:50Z</time>
      </trkpt>
      <trkpt lat="48.41399" lon="2.62312">
        <ele>141</ele>
        <time>2012-11-04T07:43:16Z</time>
      </trkpt>
      <trkpt lat="48.41318" lon="2.62243">
        <ele>145</ele>
        <time>2012-11-04T07:43:49Z</time>
      </trkpt>
      <trkpt lat="48.41285" lon="2.62204">
        <ele>145</ele>
        <time>2012-11-04T07:44:00Z</time>
      </trkpt>
      <trkpt lat="48.41267" lon="2.62166">
        <ele>143</ele>
        <time>2012-11-04T07:44:09Z</time>
      </trkpt>
      <trkpt lat="48.41263" lon="2.62161">
        <ele>142</ele>
        <time>2012-11-04T07:44:10Z</time>
      </trkpt>
      <trkpt lat="48.41202" lon="2.6208">
        <ele>133</ele>
        <time>2012-11-04T07:44:18Z</time>
      </trkpt>
      <trkpt lat="48.41111" lon="2.61784">
        <ele>115</ele>
        <time>2012-11-04T07:44:39Z</time>
      </trkpt>
      <trkpt lat="48.41127" lon="2.61652">
        <ele>111</ele>
        <time>2012-11-04T07:44:51Z</time>
      </trkpt>
      <trkpt lat="48.41151" lon="2.61546">
        <ele>110</ele>
        <time>2012-11-04T07:45:02Z</time>
      </trkpt>
      <trkpt lat="48.41156" lon="2.61425">
        <ele>107</ele>
        <time>2012-11-04T07:45:18Z</time>
      </trkpt>
      <trkpt lat="48.41114" lon="2.60968">
        <ele>104</ele>
        <time>2012-11-04T07:46:46Z</time>
      </trkpt>
      <trkpt lat="48.41102" lon="2.60955">
        <ele>104</ele>
        <time>2012-11-04T07:46:50Z</time>
      </trkpt>
      <trkpt lat="48.41081" lon="2.60962">
        <ele>105</ele>
        <time>2012-11-04T07:47:00Z</time>
      </trkpt>
      <trkpt lat="48.411" lon="2.60954">
        <ele>104</ele>
        <time>2012-11-04T07:47:12Z</time>
      </trkpt>
      <trkpt lat="48.41107" lon="2.60936">
        <ele>104</ele>
        <time>2012-11-04T07:47:16Z</time>
      </trkpt>
      <trkpt lat="48.41105" lon="2.60885">
        <ele>104</ele>
        <time>2012-11-04T07:47:26Z</time>
      </trkpt>
      <trkpt lat="48.41082" lon="2.60832">
        <ele>103</ele>
        <time>2012-11-04T07:47:38Z</time>
      </trkpt>
      <trkpt lat="48.41059" lon="2.60809">
        <ele>104</ele>
        <time>2012-11-04T07:47:45Z</time>
      </trkpt>
      <trkpt lat="48.41011" lon="2.60802">
        <ele>104</ele>
        <time>2012-11-04T07:47:58Z</time>
      </trkpt>
      <trkpt lat="48.40963" lon="2.60772">
        <ele>105</ele>
        <time>2012-11-04T07:48:11Z</time>
      </trkpt>
      <trkpt lat="48.40912" lon="2.60776">
        <ele>107</ele>
        <time>2012-11-04T07:48:24Z</time>
      </trkpt>
      <trkpt lat="48.4086" lon="2.60797">
        <ele>110</ele>
        <time>2012-11-04T07:48:40Z</time>
      </trkpt>
      <trkpt lat="48.40825" lon="2.60797">
        <ele>113</ele>
        <time>2012-11-04T07:48:52Z</time>
      </trkpt>
      <trkpt lat="48.40774" lon="2.60854">
        <ele>116</ele>
        <time>2012-11-04T07:49:09Z</time>
      </trkpt>
      <trkpt lat="48.40769" lon="2.60867">
        <ele>116</ele>
        <time>2012-11-04T07:49:12Z</time>
      </trkpt>
      <trkpt lat="48.40752" lon="2.61006">
        <ele>119</ele>
        <time>2012-11-04T07:49:40Z</time>
      </trkpt>
      <trkpt lat="48.40757" lon="2.61044">
        <ele>121</ele>
        <time>2012-11-04T07:49:49Z</time>
      </trkpt>
      <trkpt lat="48.40748" lon="2.61153">
        <ele>124</ele>
        <time>2012-11-04T07:50:11Z</time>
      </trkpt>
      <trkpt lat="48.40744" lon="2.61159">
        <ele>124</ele>
        <time>2012-11-04T07:50:13Z</time>
      </trkpt>
      <trkpt lat="48.40736" lon="2.61157">
        <ele>125</ele>
        <time>2012-11-04T07:50:18Z</time>
      </trkpt>
      <trkpt lat="48.4072" lon="2.61146">
        <ele>128</ele>
        <time>2012-11-04T07:50:37Z</time>
      </trkpt>
      <trkpt lat="48.40719" lon="2.61138">
        <ele>129</ele>
        <time>2012-11-04T07:50:46Z</time>
      </trkpt>
      <trkpt lat="48.40697" lon="2.61129">
        <ele>133</ele>
        <time>2012-11-04T07:51:12Z</time>
      </trkpt>
      <trkpt lat="48.40675" lon="2.61135">
        <ele>139</ele>
        <time>2012-11-04T07:51:47Z</time>
      </trkpt>
      <trkpt lat="48.40669" lon="2.61149">
        <ele>142</ele>
        <time>2012-11-04T07:52:01Z</time>
      </trkpt>
      <trkpt lat="48.4066" lon="2.61144">
        <ele>144</ele>
        <time>2012-11-04T07:52:11Z</time>
      </trkpt>
      <trkpt lat="48.40657" lon="2.61089">
        <ele>145</ele>
        <time>2012-11-04T07:52:41Z</time>
      </trkpt>
      <trkpt lat="48.40655" lon="2.61054">
        <ele>144</ele>
        <time>2012-11-04T07:52:50Z</time>
      </trkpt>
      <trkpt lat="48.40674" lon="2.60973">
        <ele>144</ele>
        <time>2012-11-04T07:53:12Z</time>
      </trkpt>
      <trkpt lat="48.40672" lon="2.60852">
        <ele>145</ele>
        <time>2012-11-04T07:53:44Z</time>
      </trkpt>
      <trkpt lat="48.4068" lon="2.60767">
        <ele>146</ele>
        <time>2012-11-04T07:54:03Z</time>
      </trkpt>
      <trkpt lat="48.40674" lon="2.60665">
        <ele>145</ele>
        <time>2012-11-04T07:54:22Z</time>
      </trkpt>
      <trkpt lat="48.40666" lon="2.60626">
        <ele>146</ele>
        <time>2012-11-04T07:54:30Z</time>
      </trkpt>
      <trkpt lat="48.40688" lon="2.6052">
        <ele>147</ele>
        <time>2012-11-04T07:54:51Z</time>
      </trkpt>
      <trkpt lat="48.40689" lon="2.60411">
        <ele>147</ele>
        <time>2012-11-04T07:55:11Z</time>
      </trkpt>
      <trkpt lat="48.40606" lon="2.60313">
        <ele>147</ele>
        <time>2012-11-04T07:55:37Z</time>
      </trkpt>
      <trkpt lat="48.40486" lon="2.60228">
        <ele>148</ele>
        <time>2012-11-04T07:56:05Z</time>
      </trkpt>
      <trkpt lat="48.40442" lon="2.60218">
        <ele>147</ele>
        <time>2012-11-04T07:56:13Z</time>
      </trkpt>
      <trkpt lat="48.40424" lon="2.60205">
        <ele>147</ele>
        <time>2012-11-04T07:56:19Z</time>
      </trkpt>
      <trkpt lat="48.40395" lon="2.60208">
        <ele>145</ele>
        <time>2012-11-04T07:56:27Z</time>
      </trkpt>
      <trkpt lat="48.40358" lon="2.60188">
        <ele>145</ele>
        <time>2012-11-04T07:56:39Z</time>
      </trkpt>
      <trkpt lat="48.40326" lon="2.60187">
        <ele>149</ele>
        <time>2012-11-04T07:57:03Z</time>
      </trkpt>
      <trkpt lat="48.40318" lon="2.60177">
        <ele>149</ele>
        <time>2012-11-04T07:57:09Z</time>
      </trkpt>
      <trkpt lat="48.40302" lon="2.60174">
        <ele>150</ele>
        <time>2012-11-04T07:57:16Z</time>
      </trkpt>
      <trkpt lat="48.40234" lon="2.60185">
        <ele>145</ele>
        <time>2012-11-04T07:57:42Z</time>
      </trkpt>
      <trkpt lat="48.40226" lon="2.60076">
        <ele>143</ele>
        <time>2012-11-04T07:58:03Z</time>
      </trkpt>
      <trkpt lat="48.40242" lon="2.59898">
        <ele>139</ele>
        <time>2012-11-04T07:58:29Z</time>
      </trkpt>
      <trkpt lat="48.4024" lon="2.59947">
        <ele>139</ele>
        <time>2012-11-04T07:58:54Z</time>
      </trkpt>
      <trkpt lat="48.40223" lon="2.60037">
        <ele>141</ele>
        <time>2012-11-04T07:59:18Z</time>
      </trkpt>
      <trkpt lat="48.40211" lon="2.60054">
        <ele>144</ele>
        <time>2012-11-04T07:59:35Z</time>
      </trkpt>
      <trkpt lat="48.40201" lon="2.60056">
        <ele>145</ele>
        <time>2012-11-04T07:59:43Z</time>
      </trkpt>
      <trkpt lat="48.40181" lon="2.60017">
        <ele>147</ele>
        <time>2012-11-04T08:00:02Z</time>
      </trkpt>
      <trkpt lat="48.40156" lon="2.59862">
        <ele>147</ele>
        <time>2012-11-04T08:00:49Z</time>
      </trkpt>
      <trkpt lat="48.40147" lon="2.59837">
        <ele>147</ele>
        <time>2012-11-04T08:00:56Z</time>
      </trkpt>
      <trkpt lat="48.40096" lon="2.59815">
        <ele>147</ele>
        <time>2012-11-04T08:01:12Z</time>
      </trkpt>
      <trkpt lat="48.40088" lon="2.59811">
        <ele>147</ele>
        <time>2012-11-04T08:01:14Z</time>
      </trkpt>
      <trkpt lat="48.40056" lon="2.5981">
        <ele>146</ele>
        <time>2012-11-04T08:01:23Z</time>
      </trkpt>
      <trkpt lat="48.40046" lon="2.598">
        <ele>145</ele>
        <time>2012-11-04T08:01:27Z</time>
      </trkpt>
      <trkpt lat="48.40034" lon="2.59763">
        <ele>145</ele>
        <time>2012-11-04T08:01:35Z</time>
      </trkpt>
      <trkpt lat="48.40035" lon="2.59734">
        <ele>145</ele>
        <time>2012-11-04T08:01:40Z</time>
      </trkpt>
      <trkpt lat="48.40019" lon="2.59674">
        <ele>145</ele>
        <time>2012-11-04T08:01:49Z</time>
      </trkpt>
      <trkpt lat="48.40015" lon="2.59596">
        <ele>144</ele>
        <time>2012-11-04T08:02:03Z</time>
      </trkpt>
      <trkpt lat="48.4003" lon="2.59486">
        <ele>145</ele>
        <time>2012-11-04T08:02:21Z</time>
      </trkpt>
      <trkpt lat="48.40046" lon="2.59439">
        <ele>145</ele>
        <time>2012-11-04T08:02:30Z</time>
      </trkpt>
      <trkpt lat="48.40112" lon="2.59396">
        <ele>146</ele>
        <time>2012-11-04T08:02:47Z</time>
      </trkpt>
      <trkpt lat="48.40122" lon="2.59378">
        <ele>146</ele>
        <time>2012-11-04T08:02:51Z</time>
      </trkpt>
      <trkpt lat="48.40125" lon="2.59234">
        <ele>146</ele>
        <time>2012-11-04T08:05:05Z</time>
      </trkpt>
      <trkpt lat="48.4012" lon="2.59243">
        <ele>146</ele>
        <time>2012-11-04T08:05:12Z</time>
      </trkpt>
      <trkpt lat="48.40125" lon="2.5938">
        <ele>147</ele>
        <time>2012-11-04T08:05:41Z</time>
      </trkpt>
      <trkpt lat="48.40087" lon="2.59412">
        <ele>147</ele>
        <time>2012-11-04T08:05:53Z</time>
      </trkpt>
      <trkpt lat="48.40053" lon="2.59432">
        <ele>146</ele>
        <time>2012-11-04T08:06:02Z</time>
      </trkpt>
      <trkpt lat="48.40037" lon="2.59466">
        <ele>146</ele>
        <time>2012-11-04T08:06:09Z</time>
      </trkpt>
      <trkpt lat="48.39985" lon="2.59481">
        <ele>139</ele>
        <time>2012-11-04T08:06:45Z</time>
      </trkpt>
      <trkpt lat="48.39971" lon="2.59478">
        <ele>138</ele>
        <time>2012-11-04T08:06:52Z</time>
      </trkpt>
      <trkpt lat="48.39934" lon="2.59491">
        <ele>135</ele>
        <time>2012-11-04T08:07:04Z</time>
      </trkpt>
      <trkpt lat="48.39916" lon="2.59482">
        <ele>133</ele>
        <time>2012-11-04T08:07:09Z</time>
      </trkpt>
      <trkpt lat="48.39892" lon="2.59459">
        <ele>132</ele>
        <time>2012-11-04T08:07:15Z</time>
      </trkpt>
      <trkpt lat="48.39885" lon="2.59459">
        <ele>132</ele>
        <time>2012-11-04T08:07:17Z</time>
      </trkpt>
      <trkpt lat="48.39882" lon="2.5947">
        <ele>132</ele>
        <time>2012-11-04T08:07:20Z</time>
      </trkpt>
      <trkpt lat="48.39883" lon="2.59677">
        <ele>133</ele>
        <time>2012-11-04T08:08:13Z</time>
      </trkpt>
      <trkpt lat="48.39906" lon="2.59845">
        <ele>135</ele>
        <time>2012-11-04T08:08:44Z</time>
      </trkpt>
      <trkpt lat="48.39896" lon="2.59882">
        <ele>135</ele>
        <time>2012-11-04T08:08:51Z</time>
      </trkpt>
      <trkpt lat="48.39833" lon="2.6">
        <ele>133</ele>
        <time>2012-11-04T08:09:14Z</time>
      </trkpt>
      <trkpt lat="48.39801" lon="2.60166">
        <ele>132</ele>
        <time>2012-11-04T08:09:43Z</time>
      </trkpt>
      <trkpt lat="48.39796" lon="2.60185">
        <ele>132</ele>
        <time>2012-11-04T08:09:48Z</time>
      </trkpt>
      <trkpt lat="48.39774" lon="2.60145">
        <ele>132</ele>
        <time>2012-11-04T08:10:04Z</time>
      </trkpt>
      <trkpt lat="48.39751" lon="2.60123">
        <ele>133</ele>
        <time>2012-11-04T08:10:16Z</time>
      </trkpt>
      <trkpt lat="48.39748" lon="2.60109">
        <ele>133</ele>
        <time>2012-11-04T08:10:22Z</time>
      </trkpt>
      <trkpt lat="48.39742" lon="2.60106">
        <ele>134</ele>
        <time>2012-11-04T08:10:26Z</time>
      </trkpt>
      <trkpt lat="48.39714" lon="2.60057">
        <ele>134</ele>
        <time>2012-11-04T08:10:45Z</time>
      </trkpt>
      <trkpt lat="48.39668" lon="2.60034">
        <ele>127</ele>
        <time>2012-11-04T08:11:08Z</time>
      </trkpt>
      <trkpt lat="48.39632" lon="2.59968">
        <ele>123</ele>
        <time>2012-11-04T08:11:25Z</time>
      </trkpt>
      <trkpt lat="48.39613" lon="2.5996">
        <ele>117</ele>
        <time>2012-11-04T08:11:39Z</time>
      </trkpt>
      <trkpt lat="48.39517" lon="2.59976">
        <ele>110</ele>
        <time>2012-11-04T08:12:06Z</time>
      </trkpt>
      <trkpt lat="48.39496" lon="2.59972">
        <ele>110</ele>
        <time>2012-11-04T08:12:15Z</time>
      </trkpt>
      <trkpt lat="48.39381" lon="2.59912">
        <ele>117</ele>
        <time>2012-11-04T08:14:10Z</time>
      </trkpt>
      <trkpt lat="48.39282" lon="2.59851">
        <ele>128</ele>
        <time>2012-11-04T08:14:56Z</time>
      </trkpt>
      <trkpt lat="48.39233" lon="2.59849">
        <ele>138</ele>
        <time>2012-11-04T08:15:23Z</time>
      </trkpt>
      <trkpt lat="48.39213" lon="2.5984">
        <ele>140</ele>
        <time>2012-11-04T08:15:49Z</time>
      </trkpt>
      <trkpt lat="48.39159" lon="2.59835">
        <ele>143</ele>
        <time>2012-11-04T08:16:12Z</time>
      </trkpt>
      <trkpt lat="48.39063" lon="2.59811">
        <ele>146</ele>
        <time>2012-11-04T08:16:45Z</time>
      </trkpt>
      <trkpt lat="48.39024" lon="2.5981">
        <ele>146</ele>
        <time>2012-11-04T08:16:53Z</time>
      </trkpt>
      <trkpt lat="48.38923" lon="2.59785">
        <ele>145</ele>
        <time>2012-11-04T08:17:16Z</time>
      </trkpt>
      <trkpt lat="48.38912" lon="2.59773">
        <ele>144</ele>
        <time>2012-11-04T08:17:20Z</time>
      </trkpt>
      <trkpt lat="48.38986" lon="2.59482">
        <ele>145</ele>
        <time>2012-11-04T08:18:04Z</time>
      </trkpt>
      <trkpt lat="48.3901" lon="2.59418">
        <ele>145</ele>
        <time>2012-11-04T08:18:13Z</time>
      </trkpt>
      <trkpt lat="48.39014" lon="2.59412">
        <ele>145</ele>
        <time>2012-11-04T08:18:14Z</time>
      </trkpt>
      <trkpt lat="48.39039" lon="2.59366">
        <ele>145</ele>
        <time>2012-11-04T08:18:21Z</time>
      </trkpt>
      <trkpt lat="48.3908" lon="2.59219">
        <ele>145</ele>
        <time>2012-11-04T08:18:51Z</time>
      </trkpt>
      <trkpt lat="48.39054" lon="2.59212">
        <ele>145</ele>
        <time>2012-11-04T08:19:01Z</time>
      </trkpt>
      <trkpt lat="48.3902" lon="2.59216">
        <ele>145</ele>
        <time>2012-11-04T08:19:11Z</time>
      </trkpt>
      <trkpt lat="48.38987" lon="2.59267">
        <ele>138</ele>
        <time>2012-11-04T08:20:00Z</time>
      </trkpt>
      <trkpt lat="48.38961" lon="2.59272">
        <ele>138</ele>
        <time>2012-11-04T08:20:17Z</time>
      </trkpt>
      <trkpt lat="48.38919" lon="2.59312">
        <ele>144</ele>
        <time>2012-11-04T08:21:09Z</time>
      </trkpt>
      <trkpt lat="48.38941" lon="2.59213">
        <ele>145</ele>
        <time>2012-11-04T08:21:51Z</time>
      </trkpt>
      <trkpt lat="48.38931" lon="2.59078">
        <ele>147</ele>
        <time>2012-11-04T08:22:35Z</time>
      </trkpt>
      <trkpt lat="48.38942" lon="2.59059">
        <ele>147</ele>
        <time>2012-11-04T08:22:43Z</time>
      </trkpt>
      <trkpt lat="48.38943" lon="2.59011">
        <ele>146</ele>
        <time>2012-11-04T08:22:58Z</time>
      </trkpt>
      <trkpt lat="48.38932" lon="2.58986">
        <ele>147</ele>
        <time>2012-11-04T08:23:07Z</time>
      </trkpt>
      <trkpt lat="48.38937" lon="2.58939">
        <ele>148</ele>
        <time>2012-11-04T08:23:22Z</time>
      </trkpt>
      <trkpt lat="48.38932" lon="2.58926">
        <ele>148</ele>
        <time>2012-11-04T08:23:27Z</time>
      </trkpt>
      <trkpt lat="48.38933" lon="2.58858">
        <ele>148</ele>
        <time>2012-11-04T08:23:47Z</time>
      </trkpt>
      <trkpt lat="48.38926" lon="2.58802">
        <ele>149</ele>
        <time>2012-11-04T08:24:03Z</time>
      </trkpt>
      <trkpt lat="48.38943" lon="2.58746">
        <ele>148</ele>
        <time>2012-11-04T08:24:18Z</time>
      </trkpt>
      <trkpt lat="48.38956" lon="2.58623">
        <ele>148</ele>
        <time>2012-11-04T08:24:44Z</time>
      </trkpt>
      <trkpt lat="48.38981" lon="2.5857">
        <ele>149</ele>
        <time>2012-11-04T08:25:00Z</time>
      </trkpt>
      <trkpt lat="48.3899" lon="2.58518">
        <ele>148</ele>
        <time>2012-11-04T08:25:15Z</time>
      </trkpt>
      <trkpt lat="48.39005" lon="2.58489">
        <ele>148</ele>
        <time>2012-11-04T08:25:25Z</time>
      </trkpt>
      <trkpt lat="48.39024" lon="2.58409">
        <ele>149</ele>
        <time>2012-11-04T08:25:46Z</time>
      </trkpt>
      <trkpt lat="48.39025" lon="2.58284">
        <ele>149</ele>
        <time>2012-11-04T08:26:26Z</time>
      </trkpt>
      <trkpt lat="48.39022" lon="2.58263">
        <ele>149</ele>
        <time>2012-11-04T08:26:35Z</time>
      </trkpt>
      <trkpt lat="48.39008" lon="2.58252">
        <ele>149</ele>
        <time>2012-11-04T08:26:43Z</time>
      </trkpt>
      <trkpt lat="48.39006" lon="2.58248">
        <ele>149</ele>
        <time>2012-11-04T08:26:45Z</time>
      </trkpt>
      <trkpt lat="48.39001" lon="2.5823">
        <ele>149</ele>
        <time>2012-11-04T08:26:52Z</time>
      </trkpt>
      <trkpt lat="48.39008" lon="2.58171">
        <ele>148</ele>
        <time>2012-11-04T08:27:08Z</time>
      </trkpt>
      <trkpt lat="48.39019" lon="2.58146">
        <ele>149</ele>
        <time>2012-11-04T08:27:19Z</time>
      </trkpt>
      <trkpt lat="48.39036" lon="2.58132">
        <ele>149</ele>
        <time>2012-11-04T08:27:36Z</time>
      </trkpt>
      <trkpt lat="48.39044" lon="2.58102">
        <ele>149</ele>
        <time>2012-11-04T08:27:51Z</time>
      </trkpt>
      <trkpt lat="48.39041" lon="2.58077">
        <ele>148</ele>
        <time>2012-11-04T08:27:59Z</time>
      </trkpt>
      <trkpt lat="48.39053" lon="2.58059">
        <ele>147</ele>
        <time>2012-11-04T08:28:07Z</time>
      </trkpt>
      <trkpt lat="48.39039" lon="2.57984">
        <ele>148</ele>
        <time>2012-11-04T08:28:29Z</time>
      </trkpt>
      <trkpt lat="48.39047" lon="2.5791">
        <ele>149</ele>
        <time>2012-11-04T08:28:50Z</time>
      </trkpt>
      <trkpt lat="48.39011" lon="2.57854">
        <ele>149</ele>
        <time>2012-11-04T08:29:06Z</time>
      </trkpt>
      <trkpt lat="48.39003" lon="2.57831">
        <ele>149</ele>
        <time>2012-11-04T08:29:13Z</time>
      </trkpt>
      <trkpt lat="48.39002" lon="2.57792">
        <ele>148</ele>
        <time>2012-11-04T08:29:27Z</time>
      </trkpt>
      <trkpt lat="48.39013" lon="2.57749">
        <ele>148</ele>
        <time>2012-11-04T08:29:42Z</time>
      </trkpt>
      <trkpt lat="48.39013" lon="2.57717">
        <ele>148</ele>
        <time>2012-11-04T08:29:51Z</time>
      </trkpt>
      <trkpt lat="48.39027" lon="2.57691">
        <ele>147</ele>
        <time>2012-11-04T08:30:01Z</time>
      </trkpt>
      <trkpt lat="48.39029" lon="2.57657">
        <ele>148</ele>
        <time>2012-11-04T08:30:09Z</time>
      </trkpt>
      <trkpt lat="48.3904" lon="2.57631">
        <ele>149</ele>
        <time>2012-11-04T08:30:19Z</time>
      </trkpt>
      <trkpt lat="48.39037" lon="2.57547">
        <ele>148</ele>
        <time>2012-11-04T08:30:46Z</time>
      </trkpt>
      <trkpt lat="48.39046" lon="2.57517">
        <ele>148</ele>
        <time>2012-11-04T08:30:58Z</time>
      </trkpt>
      <trkpt lat="48.39027" lon="2.57477">
        <ele>147</ele>
        <time>2012-11-04T08:31:12Z</time>
      </trkpt>
      <trkpt lat="48.39025" lon="2.57393">
        <ele>147</ele>
        <time>2012-11-04T08:31:58Z</time>
      </trkpt>
      <trkpt lat="48.3905" lon="2.57329">
        <ele>148</ele>
        <time>2012-11-04T08:32:36Z</time>
      </trkpt>
      <trkpt lat="48.39073" lon="2.573">
        <ele>148</ele>
        <time>2012-11-04T08:32:51Z</time>
      </trkpt>
      <trkpt lat="48.39072" lon="2.57259">
        <ele>148</ele>
        <time>2012-11-04T08:33:02Z</time>
      </trkpt>
      <trkpt lat="48.39086" lon="2.57207">
        <ele>147</ele>
        <time>2012-11-04T08:33:17Z</time>
      </trkpt>
      <trkpt lat="48.39111" lon="2.57168">
        <ele>148</ele>
        <time>2012-11-04T08:33:34Z</time>
      </trkpt>
      <trkpt lat="48.39118" lon="2.57167">
        <ele>148</ele>
        <time>2012-11-04T08:33:38Z</time>
      </trkpt>
      <trkpt lat="48.39126" lon="2.5712">
        <ele>147</ele>
        <time>2012-11-04T08:33:50Z</time>
      </trkpt>
      <trkpt lat="48.39136" lon="2.57101">
        <ele>147</ele>
        <time>2012-11-04T08:33:56Z</time>
      </trkpt>
      <trkpt lat="48.39143" lon="2.57038">
        <ele>148</ele>
        <time>2012-11-04T08:34:12Z</time>
      </trkpt>
      <trkpt lat="48.39167" lon="2.56974">
        <ele>147</ele>
        <time>2012-11-04T08:35:16Z</time>
      </trkpt>
      <trkpt lat="48.39168" lon="2.56973">
        <ele>147</ele>
        <time>2012-11-04T08:38:06Z</time>
      </trkpt>
      <trkpt lat="48.39155" lon="2.5692">
        <ele>147</ele>
        <time>2012-11-04T08:38:23Z</time>
      </trkpt>
      <trkpt lat="48.39175" lon="2.56861">
        <ele>147</ele>
        <time>2012-11-04T08:38:51Z</time>
      </trkpt>
      <trkpt lat="48.39181" lon="2.56745">
        <ele>148</ele>
        <time>2012-11-04T08:39:22Z</time>
      </trkpt>
      <trkpt lat="48.39191" lon="2.56723">
        <ele>148</ele>
        <time>2012-11-04T08:39:31Z</time>
      </trkpt>
      <trkpt lat="48.39198" lon="2.56674">
        <ele>149</ele>
        <time>2012-11-04T08:39:47Z</time>
      </trkpt>
      <trkpt lat="48.3921" lon="2.5664">
        <ele>148</ele>
        <time>2012-11-04T08:40:04Z</time>
      </trkpt>
      <trkpt lat="48.39207" lon="2.565">
        <ele>147</ele>
        <time>2012-11-04T08:40:45Z</time>
      </trkpt>
      <trkpt lat="48.39238" lon="2.56474">
        <ele>148</ele>
        <time>2012-11-04T08:41:03Z</time>
      </trkpt>
      <trkpt lat="48.39244" lon="2.56377">
        <ele>147</ele>
        <time>2012-11-04T08:41:32Z</time>
      </trkpt>
      <trkpt lat="48.39249" lon="2.5637">
        <ele>148</ele>
        <time>2012-11-04T08:42:04Z</time>
      </trkpt>
      <trkpt lat="48.39254" lon="2.56376">
        <ele>149</ele>
        <time>2012-11-04T08:43:47Z</time>
      </trkpt>
      <trkpt lat="48.39256" lon="2.56373">
        <ele>149</ele>
        <time>2012-11-04T08:44:27Z</time>
      </trkpt>
      <trkpt lat="48.39257" lon="2.56328">
        <ele>148</ele>
        <time>2012-11-04T08:44:50Z</time>
      </trkpt>
      <trkpt lat="48.39248" lon="2.563">
        <ele>147</ele>
        <time>2012-11-04T08:44:58Z</time>
      </trkpt>
      <trkpt lat="48.39248" lon="2.56286">
        <ele>147</ele>
        <time>2012-11-04T08:45:18Z</time>
      </trkpt>
      <trkpt lat="48.39256" lon="2.56273">
        <ele>143</ele>
        <time>2012-11-04T08:45:38Z</time>
      </trkpt>
      <trkpt lat="48.39247" lon="2.56244">
        <ele>136</ele>
        <time>2012-11-04T08:46:15Z</time>
      </trkpt>
      <trkpt lat="48.39248" lon="2.5619">
        <ele>125</ele>
        <time>2012-11-04T08:47:08Z</time>
      </trkpt>
      <trkpt lat="48.39264" lon="2.56186">
        <ele>125</ele>
        <time>2012-11-04T08:51:49Z</time>
      </trkpt>
      <trkpt lat="48.39281" lon="2.56166">
        <ele>125</ele>
        <time>2012-11-04T08:52:01Z</time>
      </trkpt>
      <trkpt lat="48.39288" lon="2.56125">
        <ele>125</ele>
        <time>2012-11-04T08:52:18Z</time>
      </trkpt>
      <trkpt lat="48.39294" lon="2.56065">
        <ele>130</ele>
        <time>2012-11-04T08:52:48Z</time>
      </trkpt>
      <trkpt lat="48.39309" lon="2.56006">
        <ele>133</ele>
        <time>2012-11-04T08:53:07Z</time>
      </trkpt>
      <trkpt lat="48.39278" lon="2.55977">
        <ele>132</ele>
        <time>2012-11-04T08:53:20Z</time>
      </trkpt>
      <trkpt lat="48.39289" lon="2.55859">
        <ele>125</ele>
        <time>2012-11-04T08:54:17Z</time>
      </trkpt>
      <trkpt lat="48.39302" lon="2.5583">
        <ele>124</ele>
        <time>2012-11-04T08:54:27Z</time>
      </trkpt>
      <trkpt lat="48.39336" lon="2.55788">
        <ele>125</ele>
        <time>2012-11-04T08:54:54Z</time>
      </trkpt>
      <trkpt lat="48.39341" lon="2.55756">
        <ele>126</ele>
        <time>2012-11-04T08:55:31Z</time>
      </trkpt>
      <trkpt lat="48.39334" lon="2.55749">
        <ele>125</ele>
        <time>2012-11-04T08:55:53Z</time>
      </trkpt>
      <trkpt lat="48.39345" lon="2.55775">
        <ele>127</ele>
        <time>2012-11-04T08:56:28Z</time>
      </trkpt>
      <trkpt lat="48.39355" lon="2.55781">
        <ele>125</ele>
        <time>2012-11-04T08:56:38Z</time>
      </trkpt>
      <trkpt lat="48.39375" lon="2.55737">
        <ele>123</ele>
        <time>2012-11-04T08:57:22Z</time>
      </trkpt>
      <trkpt lat="48.39368" lon="2.55739">
        <ele>124</ele>
        <time>2012-11-04T08:57:34Z</time>
      </trkpt>
      <trkpt lat="48.39368" lon="2.5573">
        <ele>124</ele>
        <time>2012-11-04T08:57:44Z</time>
      </trkpt>
      <trkpt lat="48.39341" lon="2.55701">
        <ele>119</ele>
        <time>2012-11-04T08:58:16Z</time>
      </trkpt>
      <trkpt lat="48.39336" lon="2.55679">
        <ele>117</ele>
        <time>2012-11-04T08:58:26Z</time>
      </trkpt>
      <trkpt lat="48.39325" lon="2.55692">
        <ele>116</ele>
        <time>2012-11-04T08:58:39Z</time>
      </trkpt>
      <trkpt lat="48.39315" lon="2.55686">
        <ele>116</ele>
        <time>2012-11-04T08:58:50Z</time>
      </trkpt>
      <trkpt lat="48.39296" lon="2.55647">
        <ele>108</ele>
        <time>2012-11-04T08:59:19Z</time>
      </trkpt>
      <trkpt lat="48.39282" lon="2.55635">
        <ele>106</ele>
        <time>2012-11-04T08:59:31Z</time>
      </trkpt>
      <trkpt lat="48.39279" lon="2.55616">
        <ele>104</ele>
        <time>2012-11-04T08:59:37Z</time>
      </trkpt>
      <trkpt lat="48.39253" lon="2.55597">
        <ele>102</ele>
        <time>2012-11-04T08:59:48Z</time>
      </trkpt>
      <trkpt lat="48.39245" lon="2.55575">
        <ele>101</ele>
        <time>2012-11-04T08:59:57Z</time>
      </trkpt>
      <trkpt lat="48.39249" lon="2.5555">
        <ele>100</ele>
        <time>2012-11-04T09:00:05Z</time>
      </trkpt>
      <trkpt lat="48.3929" lon="2.55504">
        <ele>99</ele>
        <time>2012-11-04T09:00:23Z</time>
      </trkpt>
      <trkpt lat="48.39276" lon="2.5549">
        <ele>99</ele>
        <time>2012-11-04T09:00:27Z</time>
      </trkpt>
      <trkpt lat="48.3925" lon="2.55485">
        <ele>99</ele>
        <time>2012-11-04T09:00:33Z</time>
      </trkpt>
      <trkpt lat="48.39177" lon="2.55504">
        <ele>99</ele>
        <time>2012-11-04T09:00:49Z</time>
      </trkpt>
      <trkpt lat="48.39084" lon="2.5553">
        <ele>99</ele>
        <time>2012-11-04T09:01:09Z</time>
      </trkpt>
      <trkpt lat="48.38997" lon="2.55575">
        <ele>99</ele>
        <time>2012-11-04T09:01:30Z</time>
      </trkpt>
      <trkpt lat="48.38982" lon="2.55591">
        <ele>99</ele>
        <time>2012-11-04T09:01:35Z</time>
      </trkpt>
      <trkpt lat="48.3897" lon="2.5562">
        <ele>99</ele>
        <time>2012-11-04T09:01:41Z</time>
      </trkpt>
      <trkpt lat="48.38961" lon="2.55625">
        <ele>99</ele>
        <time>2012-11-04T09:01:43Z</time>
      </trkpt>
      <trkpt lat="48.38884" lon="2.55648">
        <ele>100</ele>
        <time>2012-11-04T09:02:02Z</time>
      </trkpt>
      <trkpt lat="48.38819" lon="2.55693">
        <ele>102</ele>
        <time>2012-11-04T09:02:23Z</time>
      </trkpt>
      <trkpt lat="48.38768" lon="2.55716">
        <ele>102</ele>
        <time>2012-11-04T09:02:36Z</time>
      </trkpt>
      <trkpt lat="48.38752" lon="2.55758">
        <ele>103</ele>
        <time>2012-11-04T09:02:43Z</time>
      </trkpt>
      <trkpt lat="48.38734" lon="2.55932">
        <ele>103</ele>
        <time>2012-11-04T09:03:08Z</time>
      </trkpt>
      <trkpt lat="48.38726" lon="2.55946">
        <ele>103</ele>
        <time>2012-11-04T09:03:10Z</time>
      </trkpt>
      <trkpt lat="48.38702" lon="2.55915">
        <ele>103</ele>
        <time>2012-11-04T09:03:23Z</time>
      </trkpt>
      <trkpt lat="48.38699" lon="2.55878">
        <ele>104</ele>
        <time>2012-11-04T09:03:31Z</time>
      </trkpt>
      <trkpt lat="48.38661" lon="2.55796">
        <ele>111</ele>
        <time>2012-11-04T09:03:56Z</time>
      </trkpt>
      <trkpt lat="48.38639" lon="2.55787">
        <ele>115</ele>
        <time>2012-11-04T09:04:09Z</time>
      </trkpt>
      <trkpt lat="48.38631" lon="2.5579">
        <ele>118</ele>
        <time>2012-11-04T09:04:23Z</time>
      </trkpt>
      <trkpt lat="48.38612" lon="2.55845">
        <ele>128</ele>
        <time>2012-11-04T09:05:36Z</time>
      </trkpt>
      <trkpt lat="48.38598" lon="2.5587">
        <ele>130</ele>
        <time>2012-11-04T09:05:59Z</time>
      </trkpt>
      <trkpt lat="48.3855" lon="2.55918">
        <ele>133</ele>
        <time>2012-11-04T09:06:29Z</time>
      </trkpt>
      <trkpt lat="48.38509" lon="2.55938">
        <ele>133</ele>
        <time>2012-11-04T09:06:43Z</time>
      </trkpt>
      <trkpt lat="48.38483" lon="2.5593">
        <ele>135</ele>
        <time>2012-11-04T09:06:56Z</time>
      </trkpt>
      <trkpt lat="48.38445" lon="2.55938">
        <ele>135</ele>
        <time>2012-11-04T09:07:17Z</time>
      </trkpt>
      <trkpt lat="48.38433" lon="2.5595">
        <ele>132</ele>
        <time>2012-11-04T09:07:30Z</time>
      </trkpt>
      <trkpt lat="48.38406" lon="2.55928">
        <ele>127</ele>
        <time>2012-11-04T09:07:41Z</time>
      </trkpt>
      <trkpt lat="48.38426" lon="2.5585">
        <ele>125</ele>
        <time>2012-11-04T09:07:58Z</time>
      </trkpt>
      <trkpt lat="48.38422" lon="2.55805">
        <ele>125</ele>
        <time>2012-11-04T09:08:13Z</time>
      </trkpt>
      <trkpt lat="48.38414" lon="2.5579">
        <ele>125</ele>
        <time>2012-11-04T09:08:14Z</time>
      </trkpt>
      <trkpt lat="48.38421" lon="2.5575">
        <ele>125</ele>
        <time>2012-11-04T09:08:34Z</time>
      </trkpt>
      <trkpt lat="48.38434" lon="2.55735">
        <ele>124</ele>
        <time>2012-11-04T09:08:44Z</time>
      </trkpt>
      <trkpt lat="48.38452" lon="2.55686">
        <ele>124</ele>
        <time>2012-11-04T09:09:01Z</time>
      </trkpt>
      <trkpt lat="48.38464" lon="2.55623">
        <ele>125</ele>
        <time>2012-11-04T09:09:20Z</time>
      </trkpt>
      <trkpt lat="48.38464" lon="2.55614">
        <ele>125</ele>
        <time>2012-11-04T09:09:22Z</time>
      </trkpt>
      <trkpt lat="48.38483" lon="2.55554">
        <ele>126</ele>
        <time>2012-11-04T09:09:46Z</time>
      </trkpt>
      <trkpt lat="48.38488" lon="2.55507">
        <ele>128</ele>
        <time>2012-11-04T09:10:00Z</time>
      </trkpt>
      <trkpt lat="48.38497" lon="2.5549">
        <ele>128</ele>
        <time>2012-11-04T09:10:08Z</time>
      </trkpt>
      <trkpt lat="48.38514" lon="2.55366">
        <ele>132</ele>
        <time>2012-11-04T09:11:12Z</time>
      </trkpt>
      <trkpt lat="48.38519" lon="2.55282">
        <ele>135</ele>
        <time>2012-11-04T09:11:55Z</time>
      </trkpt>
      <trkpt lat="48.3851" lon="2.55293">
        <ele>135</ele>
        <time>2012-11-04T09:12:08Z</time>
      </trkpt>
      <trkpt lat="48.38521" lon="2.5524">
        <ele>136</ele>
        <time>2012-11-04T09:13:59Z</time>
      </trkpt>
      <trkpt lat="48.38526" lon="2.55148">
        <ele>136</ele>
        <time>2012-11-04T09:14:18Z</time>
      </trkpt>
      <trkpt lat="48.386" lon="2.5481">
        <ele>138</ele>
        <time>2012-11-04T09:15:17Z</time>
      </trkpt>
      <trkpt lat="48.38608" lon="2.54697">
        <ele>140</ele>
        <time>2012-11-04T09:15:33Z</time>
      </trkpt>
      <trkpt lat="48.38622" lon="2.54628">
        <ele>141</ele>
        <time>2012-11-04T09:15:46Z</time>
      </trkpt>
      <trkpt lat="48.38629" lon="2.54619">
        <ele>142</ele>
        <time>2012-11-04T09:15:48Z</time>
      </trkpt>
      <trkpt lat="48.3864" lon="2.54552">
        <ele>143</ele>
        <time>2012-11-04T09:15:58Z</time>
      </trkpt>
      <trkpt lat="48.38694" lon="2.5435">
        <ele>146</ele>
        <time>2012-11-04T09:16:24Z</time>
      </trkpt>
      <trkpt lat="48.38761" lon="2.54274">
        <ele>147</ele>
        <time>2012-11-04T09:16:43Z</time>
      </trkpt>
      <trkpt lat="48.38768" lon="2.54247">
        <ele>147</ele>
        <time>2012-11-04T09:16:48Z</time>
      </trkpt>
      <trkpt lat="48.38769" lon="2.54202">
        <ele>147</ele>
        <time>2012-11-04T09:16:55Z</time>
      </trkpt>
      <trkpt lat="48.38798" lon="2.54182">
        <ele>147</ele>
        <time>2012-11-04T09:17:03Z</time>
      </trkpt>
      <trkpt lat="48.38826" lon="2.54027">
        <ele>148</ele>
        <time>2012-11-04T09:17:27Z</time>
      </trkpt>
      <trkpt lat="48.38857" lon="2.53951">
        <ele>148</ele>
        <time>2012-11-04T09:17:39Z</time>
      </trkpt>
      <trkpt lat="48.38868" lon="2.53932">
        <ele>149</ele>
        <time>2012-11-04T09:17:43Z</time>
      </trkpt>
      <trkpt lat="48.38881" lon="2.53926">
        <ele>149</ele>
        <time>2012-11-04T09:17:47Z</time>
      </trkpt>
      <trkpt lat="48.38887" lon="2.5391">
        <ele>149</ele>
        <time>2012-11-04T09:17:51Z</time>
      </trkpt>
      <trkpt lat="48.38889" lon="2.53873">
        <ele>150</ele>
        <time>2012-11-04T09:17:57Z</time>
      </trkpt>
      <trkpt lat="48.38903" lon="2.53835">
        <ele>149</ele>
        <time>2012-11-04T09:18:03Z</time>
      </trkpt>
      <trkpt lat="48.389" lon="2.53779">
        <ele>150</ele>
        <time>2012-11-04T09:18:11Z</time>
      </trkpt>
      <trkpt lat="48.38911" lon="2.53742">
        <ele>150</ele>
        <time>2012-11-04T09:18:18Z</time>
      </trkpt>
      <trkpt lat="48.38941" lon="2.53711">
        <ele>151</ele>
        <time>2012-11-04T09:18:27Z</time>
      </trkpt>
      <trkpt lat="48.38959" lon="2.5368">
        <ele>152</ele>
        <time>2012-11-04T09:18:33Z</time>
      </trkpt>
      <trkpt lat="48.39021" lon="2.5366">
        <ele>152</ele>
        <time>2012-11-04T09:18:48Z</time>
      </trkpt>
      <trkpt lat="48.39034" lon="2.53649">
        <ele>152</ele>
        <time>2012-11-04T09:18:51Z</time>
      </trkpt>
      <trkpt lat="48.39057" lon="2.53607">
        <ele>151</ele>
        <time>2012-11-04T09:18:58Z</time>
      </trkpt>
      <trkpt lat="48.39094" lon="2.53582">
        <ele>151</ele>
        <time>2012-11-04T09:19:06Z</time>
      </trkpt>
      <trkpt lat="48.39168" lon="2.53447">
        <ele>149</ele>
        <time>2012-11-04T09:19:26Z</time>
      </trkpt>
      <trkpt lat="48.39186" lon="2.53399">
        <ele>147</ele>
        <time>2012-11-04T09:19:32Z</time>
      </trkpt>
      <trkpt lat="48.39212" lon="2.5336">
        <ele>146</ele>
        <time>2012-11-04T09:19:38Z</time>
      </trkpt>
      <trkpt lat="48.39219" lon="2.53333">
        <ele>146</ele>
        <time>2012-11-04T09:19:44Z</time>
      </trkpt>
      <trkpt lat="48.39206" lon="2.53333">
        <ele>146</ele>
        <time>2012-11-04T09:19:49Z</time>
      </trkpt>
      <trkpt lat="48.39194" lon="2.53313">
        <ele>146</ele>
        <time>2012-11-04T09:19:57Z</time>
      </trkpt>
      <trkpt lat="48.39148" lon="2.53209">
        <ele>144</ele>
        <time>2012-11-04T09:20:18Z</time>
      </trkpt>
      <trkpt lat="48.39124" lon="2.53134">
        <ele>143</ele>
        <time>2012-11-04T09:20:33Z</time>
      </trkpt>
      <trkpt lat="48.39131" lon="2.53004">
        <ele>141</ele>
        <time>2012-11-04T09:20:51Z</time>
      </trkpt>
      <trkpt lat="48.39148" lon="2.52948">
        <ele>139</ele>
        <time>2012-11-04T09:21:01Z</time>
      </trkpt>
      <trkpt lat="48.39156" lon="2.52865">
        <ele>135</ele>
        <time>2012-11-04T09:21:22Z</time>
      </trkpt>
      <trkpt lat="48.39169" lon="2.52826">
        <ele>134</ele>
        <time>2012-11-04T09:21:30Z</time>
      </trkpt>
      <trkpt lat="48.39182" lon="2.52738">
        <ele>128</ele>
        <time>2012-11-04T09:22:04Z</time>
      </trkpt>
      <trkpt lat="48.39189" lon="2.52736">
        <ele>127</ele>
        <time>2012-11-04T09:22:20Z</time>
      </trkpt>
      <trkpt lat="48.39188" lon="2.52745">
        <ele>130</ele>
        <time>2012-11-04T09:22:47Z</time>
      </trkpt>
      <trkpt lat="48.39198" lon="2.52754">
        <ele>133</ele>
        <time>2012-11-04T09:23:07Z</time>
      </trkpt>
      <trkpt lat="48.39226" lon="2.52756">
        <ele>138</ele>
        <time>2012-11-04T09:23:49Z</time>
      </trkpt>
      <trkpt lat="48.39241" lon="2.5277">
        <ele>145</ele>
        <time>2012-11-04T09:24:16Z</time>
      </trkpt>
      <trkpt lat="48.39258" lon="2.52761">
        <ele>147</ele>
        <time>2012-11-04T09:25:33Z</time>
      </trkpt>
      <trkpt lat="48.39264" lon="2.52785">
        <ele>147</ele>
        <time>2012-11-04T09:25:56Z</time>
      </trkpt>
      <trkpt lat="48.39282" lon="2.52802">
        <ele>147</ele>
        <time>2012-11-04T09:26:11Z</time>
      </trkpt>
      <trkpt lat="48.39282" lon="2.52802">
        <ele>147</ele>
        <time>2012-11-04T09:26:22Z</time>
      </trkpt>
      <trkpt lat="48.39313" lon="2.52779">
        <ele>138</ele>
        <time>2012-11-04T09:26:57Z</time>
      </trkpt>
      <trkpt lat="48.39337" lon="2.52775">
        <ele>137</ele>
        <time>2012-11-04T09:27:11Z</time>
      </trkpt>
      <trkpt lat="48.39365" lon="2.52742">
        <ele>137</ele>
        <time>2012-11-04T09:27:43Z</time>
      </trkpt>
      <trkpt lat="48.39377" lon="2.52741">
        <ele>139</ele>
        <time>2012-11-04T09:27:59Z</time>
      </trkpt>
      <trkpt lat="48.39387" lon="2.52672">
        <ele>139</ele>
        <time>2012-11-04T09:28:33Z</time>
      </trkpt>
      <trkpt lat="48.394" lon="2.52645">
        <ele>143</ele>
        <time>2012-11-04T09:28:52Z</time>
      </trkpt>
      <trkpt lat="48.3941" lon="2.52602">
        <ele>145</ele>
        <time>2012-11-04T09:29:07Z</time>
      </trkpt>
      <trkpt lat="48.39413" lon="2.52531">
        <ele>145</ele>
        <time>2012-11-04T09:29:22Z</time>
      </trkpt>
      <trkpt lat="48.39403" lon="2.52498">
        <ele>144</ele>
        <time>2012-11-04T09:29:31Z</time>
      </trkpt>
      <trkpt lat="48.39419" lon="2.52433">
        <ele>139</ele>
        <time>2012-11-04T09:30:24Z</time>
      </trkpt>
      <trkpt lat="48.3941" lon="2.52421">
        <ele>137</ele>
        <time>2012-11-04T09:30:55Z</time>
      </trkpt>
      <trkpt lat="48.39406" lon="2.52425">
        <ele>137</ele>
        <time>2012-11-04T09:31:00Z</time>
      </trkpt>
      <trkpt lat="48.39368" lon="2.52418">
        <ele>135</ele>
        <time>2012-11-04T09:31:21Z</time>
      </trkpt>
      <trkpt lat="48.39359" lon="2.52406">
        <ele>135</ele>
        <time>2012-11-04T09:31:27Z</time>
      </trkpt>
      <trkpt lat="48.39366" lon="2.52377">
        <ele>137</ele>
        <time>2012-11-04T09:31:37Z</time>
      </trkpt>
      <trkpt lat="48.39364" lon="2.52328">
        <ele>143</ele>
        <time>2012-11-04T09:32:10Z</time>
      </trkpt>
      <trkpt lat="48.39377" lon="2.52238">
        <ele>147</ele>
        <time>2012-11-04T09:33:02Z</time>
      </trkpt>
      <trkpt lat="48.39382" lon="2.52231">
        <ele>146</ele>
        <time>2012-11-04T09:33:09Z</time>
      </trkpt>
      <trkpt lat="48.3941" lon="2.52235">
        <ele>142</ele>
        <time>2012-11-04T09:33:19Z</time>
      </trkpt>
      <trkpt lat="48.3942" lon="2.52225">
        <ele>141</ele>
        <time>2012-11-04T09:33:24Z</time>
      </trkpt>
      <trkpt lat="48.39436" lon="2.52126">
        <ele>137</ele>
        <time>2012-11-04T09:33:40Z</time>
      </trkpt>
      <trkpt lat="48.39445" lon="2.52103">
        <ele>136</ele>
        <time>2012-11-04T09:33:44Z</time>
      </trkpt>
      <trkpt lat="48.39449" lon="2.52029">
        <ele>132</ele>
        <time>2012-11-04T09:34:13Z</time>
      </trkpt>
      <trkpt lat="48.3945" lon="2.52066">
        <ele>133</ele>
        <time>2012-11-04T09:34:27Z</time>
      </trkpt>
      <trkpt lat="48.39429" lon="2.52167">
        <ele>137</ele>
        <time>2012-11-04T09:34:53Z</time>
      </trkpt>
      <trkpt lat="48.39428" lon="2.52202">
        <ele>139</ele>
        <time>2012-11-04T09:35:02Z</time>
      </trkpt>
      <trkpt lat="48.39419" lon="2.52216">
        <ele>139</ele>
        <time>2012-11-04T09:35:07Z</time>
      </trkpt>
      <trkpt lat="48.39421" lon="2.52232">
        <ele>140</ele>
        <time>2012-11-04T09:35:14Z</time>
      </trkpt>
      <trkpt lat="48.39436" lon="2.52227">
        <ele>143</ele>
        <time>2012-11-04T09:35:34Z</time>
      </trkpt>
      <trkpt lat="48.39454" lon="2.52203">
        <ele>144</ele>
        <time>2012-11-04T09:35:50Z</time>
      </trkpt>
      <trkpt lat="48.39488" lon="2.52123">
        <ele>143</ele>
        <time>2012-11-04T09:36:19Z</time>
      </trkpt>
      <trkpt lat="48.39498" lon="2.52115">
        <ele>144</ele>
        <time>2012-11-04T09:36:36Z</time>
      </trkpt>
      <trkpt lat="48.39515" lon="2.52053">
        <ele>145</ele>
        <time>2012-11-04T09:37:04Z</time>
      </trkpt>
      <trkpt lat="48.3952" lon="2.52047">
        <ele>146</ele>
        <time>2012-11-04T09:37:10Z</time>
      </trkpt>
      <trkpt lat="48.39524" lon="2.52051">
        <ele>147</ele>
        <time>2012-11-04T09:37:30Z</time>
      </trkpt>
      <trkpt lat="48.39559" lon="2.52043">
        <ele>146</ele>
        <time>2012-11-04T09:38:02Z</time>
      </trkpt>
      <trkpt lat="48.39568" lon="2.52027">
        <ele>147</ele>
        <time>2012-11-04T09:38:09Z</time>
      </trkpt>
      <trkpt lat="48.39582" lon="2.51929">
        <ele>147</ele>
        <time>2012-11-04T09:38:49Z</time>
      </trkpt>
      <trkpt lat="48.39579" lon="2.51851">
        <ele>147</ele>
        <time>2012-11-04T09:39:25Z</time>
      </trkpt>
      <trkpt lat="48.39605" lon="2.51818">
        <ele>147</ele>
        <time>2012-11-04T09:39:51Z</time>
      </trkpt>
      <trkpt lat="48.39598" lon="2.51788">
        <ele>146</ele>
        <time>2012-11-04T09:40:19Z</time>
      </trkpt>
      <trkpt lat="48.39615" lon="2.51688">
        <ele>143</ele>
        <time>2012-11-04T09:41:02Z</time>
      </trkpt>
      <trkpt lat="48.3964" lon="2.51679">
        <ele>144</ele>
        <time>2012-11-04T09:41:19Z</time>
      </trkpt>
      <trkpt lat="48.39661" lon="2.51692">
        <ele>144</ele>
        <time>2012-11-04T09:41:27Z</time>
      </trkpt>
      <trkpt lat="48.39676" lon="2.51689">
        <ele>142</ele>
        <time>2012-11-04T09:41:39Z</time>
      </trkpt>
      <trkpt lat="48.39698" lon="2.51698">
        <ele>136</ele>
        <time>2012-11-04T09:42:04Z</time>
      </trkpt>
      <trkpt lat="48.39715" lon="2.51769">
        <ele>137</ele>
        <time>2012-11-04T09:43:02Z</time>
      </trkpt>
      <trkpt lat="48.3973" lon="2.51787">
        <ele>136</ele>
        <time>2012-11-04T09:43:16Z</time>
      </trkpt>
      <trkpt lat="48.39727" lon="2.51795">
        <ele>137</ele>
        <time>2012-11-04T09:43:24Z</time>
      </trkpt>
      <trkpt lat="48.39727" lon="2.51804">
        <ele>137</ele>
        <time>2012-11-04T09:43:31Z</time>
      </trkpt>
      <trkpt lat="48.3974" lon="2.51806">
        <ele>137</ele>
        <time>2012-11-04T09:43:39Z</time>
      </trkpt>
      <trkpt lat="48.39758" lon="2.51831">
        <ele>131</ele>
        <time>2012-11-04T09:44:06Z</time>
      </trkpt>
      <trkpt lat="48.39768" lon="2.51817">
        <ele>127</ele>
        <time>2012-11-04T09:44:16Z</time>
      </trkpt>
      <trkpt lat="48.39775" lon="2.51832">
        <ele>126</ele>
        <time>2012-11-04T09:44:22Z</time>
      </trkpt>
      <trkpt lat="48.39771" lon="2.51884">
        <ele>122</ele>
        <time>2012-11-04T09:45:44Z</time>
      </trkpt>
      <trkpt lat="48.39777" lon="2.51969">
        <ele>116</ele>
        <time>2012-11-04T09:45:55Z</time>
      </trkpt>
      <trkpt lat="48.39763" lon="2.52016">
        <ele>115</ele>
        <time>2012-11-04T09:46:03Z</time>
      </trkpt>
      <trkpt lat="48.3975" lon="2.52159">
        <ele>117</ele>
        <time>2012-11-04T09:46:28Z</time>
      </trkpt>
      <trkpt lat="48.39691" lon="2.52337">
        <ele>122</ele>
        <time>2012-11-04T09:47:01Z</time>
      </trkpt>
      <trkpt lat="48.39698" lon="2.5238">
        <ele>124</ele>
        <time>2012-11-04T09:47:11Z</time>
      </trkpt>
      <trkpt lat="48.39691" lon="2.52408">
        <ele>124</ele>
        <time>2012-11-04T09:47:17Z</time>
      </trkpt>
      <trkpt lat="48.39661" lon="2.52462">
        <ele>129</ele>
        <time>2012-11-04T09:47:35Z</time>
      </trkpt>
      <trkpt lat="48.39655" lon="2.52563">
        <ele>131</ele>
        <time>2012-11-04T09:47:57Z</time>
      </trkpt>
      <trkpt lat="48.39642" lon="2.52618">
        <ele>132</ele>
        <time>2012-11-04T09:48:07Z</time>
      </trkpt>
      <trkpt lat="48.39643" lon="2.52683">
        <ele>134</ele>
        <time>2012-11-04T09:48:21Z</time>
      </trkpt>
      <trkpt lat="48.39631" lon="2.52744">
        <ele>135</ele>
        <time>2012-11-04T09:48:32Z</time>
      </trkpt>
      <trkpt lat="48.39622" lon="2.52757">
        <ele>136</ele>
        <time>2012-11-04T09:48:35Z</time>
      </trkpt>
      <trkpt lat="48.39625" lon="2.52788">
        <ele>137</ele>
        <time>2012-11-04T09:48:42Z</time>
      </trkpt>
      <trkpt lat="48.39613" lon="2.52914">
        <ele>138</ele>
        <time>2012-11-04T09:49:02Z</time>
      </trkpt>
      <trkpt lat="48.39621" lon="2.52958">
        <ele>137</ele>
        <time>2012-11-04T09:49:13Z</time>
      </trkpt>
      <trkpt lat="48.39629" lon="2.52966">
        <ele>140</ele>
        <time>2012-11-04T09:49:24Z</time>
      </trkpt>
      <trkpt lat="48.39643" lon="2.52964">
        <ele>144</ele>
        <time>2012-11-04T09:50:17Z</time>
      </trkpt>
      <trkpt lat="48.39658" lon="2.52976">
        <ele>151</ele>
        <time>2012-11-04T09:50:53Z</time>
      </trkpt>
      <trkpt lat="48.39663" lon="2.52975">
        <ele>151</ele>
        <time>2012-11-04T09:51:02Z</time>
      </trkpt>
      <trkpt lat="48.39671" lon="2.5299">
        <ele>153</ele>
        <time>2012-11-04T09:51:16Z</time>
      </trkpt>
      <trkpt lat="48.3967" lon="2.52994">
        <ele>153</ele>
        <time>2012-11-04T09:51:55Z</time>
      </trkpt>
      <trkpt lat="48.39656" lon="2.53021">
        <ele>154</ele>
        <time>2012-11-04T09:52:35Z</time>
      </trkpt>
      <trkpt lat="48.39653" lon="2.53043">
        <ele>154</ele>
        <time>2012-11-04T09:52:42Z</time>
      </trkpt>
      <trkpt lat="48.3968" lon="2.53091">
        <ele>154</ele>
        <time>2012-11-04T09:53:01Z</time>
      </trkpt>
      <trkpt lat="48.39692" lon="2.53143">
        <ele>154</ele>
        <time>2012-11-04T09:53:16Z</time>
      </trkpt>
      <trkpt lat="48.39715" lon="2.53159">
        <ele>154</ele>
        <time>2012-11-04T09:53:26Z</time>
      </trkpt>
      <trkpt lat="48.39745" lon="2.53193">
        <ele>154</ele>
        <time>2012-11-04T09:53:42Z</time>
      </trkpt>
      <trkpt lat="48.39737" lon="2.53224">
        <ele>154</ele>
        <time>2012-11-04T09:53:59Z</time>
      </trkpt>
      <trkpt lat="48.3975" lon="2.53283">
        <ele>154</ele>
        <time>2012-11-04T09:54:14Z</time>
      </trkpt>
      <trkpt lat="48.39741" lon="2.53328">
        <ele>152</ele>
        <time>2012-11-04T09:54:24Z</time>
      </trkpt>
      <trkpt lat="48.39685" lon="2.53489">
        <ele>152</ele>
        <time>2012-11-04T09:54:56Z</time>
      </trkpt>
      <trkpt lat="48.39677" lon="2.53563">
        <ele>153</ele>
        <time>2012-11-04T09:55:12Z</time>
      </trkpt>
      <trkpt lat="48.39689" lon="2.53583">
        <ele>153</ele>
        <time>2012-11-04T09:55:21Z</time>
      </trkpt>
      <trkpt lat="48.3968" lon="2.53623">
        <ele>152</ele>
        <time>2012-11-04T09:55:37Z</time>
      </trkpt>
      <trkpt lat="48.3964" lon="2.53653">
        <ele>152</ele>
        <time>2012-11-04T09:55:58Z</time>
      </trkpt>
      <trkpt lat="48.39637" lon="2.53742">
        <ele>153</ele>
        <time>2012-11-04T09:56:25Z</time>
      </trkpt>
      <trkpt lat="48.39653" lon="2.53776">
        <ele>153</ele>
        <time>2012-11-04T09:56:36Z</time>
      </trkpt>
      <trkpt lat="48.39649" lon="2.53792">
        <ele>153</ele>
        <time>2012-11-04T09:56:41Z</time>
      </trkpt>
      <trkpt lat="48.39622" lon="2.53805">
        <ele>152</ele>
        <time>2012-11-04T09:56:53Z</time>
      </trkpt>
      <trkpt lat="48.39613" lon="2.53798">
        <ele>152</ele>
        <time>2012-11-04T09:57:00Z</time>
      </trkpt>
      <trkpt lat="48.3959" lon="2.53796">
        <ele>151</ele>
        <time>2012-11-04T09:57:09Z</time>
      </trkpt>
      <trkpt lat="48.39579" lon="2.53805">
        <ele>150</ele>
        <time>2012-11-04T09:57:21Z</time>
      </trkpt>
      <trkpt lat="48.39566" lon="2.53794">
        <ele>150</ele>
        <time>2012-11-04T09:57:28Z</time>
      </trkpt>
      <trkpt lat="48.39562" lon="2.53773">
        <ele>150</ele>
        <time>2012-11-04T09:57:37Z</time>
      </trkpt>
      <trkpt lat="48.39568" lon="2.53796">
        <ele>150</ele>
        <time>2012-11-04T09:57:50Z</time>
      </trkpt>
      <trkpt lat="48.39557" lon="2.53807">
        <ele>150</ele>
        <time>2012-11-04T09:57:57Z</time>
      </trkpt>
      <trkpt lat="48.39508" lon="2.53797">
        <ele>151</ele>
        <time>2012-11-04T09:58:15Z</time>
      </trkpt>
      <trkpt lat="48.39474" lon="2.53798">
        <ele>150</ele>
        <time>2012-11-04T09:58:27Z</time>
      </trkpt>
      <trkpt lat="48.39444" lon="2.53766">
        <ele>149</ele>
        <time>2012-11-04T09:58:38Z</time>
      </trkpt>
      <trkpt lat="48.39428" lon="2.53779">
        <ele>149</ele>
        <time>2012-11-04T09:58:43Z</time>
      </trkpt>
      <trkpt lat="48.39386" lon="2.53765">
        <ele>149</ele>
        <time>2012-11-04T09:58:53Z</time>
      </trkpt>
      <trkpt lat="48.39351" lon="2.53814">
        <ele>148</ele>
        <time>2012-11-04T09:59:07Z</time>
      </trkpt>
      <trkpt lat="48.39287" lon="2.53836">
        <ele>144</ele>
        <time>2012-11-04T09:59:27Z</time>
      </trkpt>
      <trkpt lat="48.39284" lon="2.53859">
        <ele>143</ele>
        <time>2012-11-04T09:59:38Z</time>
      </trkpt>
      <trkpt lat="48.39266" lon="2.53881">
        <ele>144</ele>
        <time>2012-11-04T09:59:49Z</time>
      </trkpt>
      <trkpt lat="48.39268" lon="2.53891">
        <ele>143</ele>
        <time>2012-11-04T10:00:16Z</time>
      </trkpt>
      <trkpt lat="48.39238" lon="2.5392">
        <ele>143</ele>
        <time>2012-11-04T10:00:26Z</time>
      </trkpt>
      <trkpt lat="48.39236" lon="2.53924">
        <ele>143</ele>
        <time>2012-11-04T10:00:27Z</time>
      </trkpt>
      <trkpt lat="48.3923" lon="2.53979">
        <ele>143</ele>
        <time>2012-11-04T10:00:40Z</time>
      </trkpt>
      <trkpt lat="48.39243" lon="2.54025">
        <ele>142</ele>
        <time>2012-11-04T10:00:51Z</time>
      </trkpt>
      <trkpt lat="48.39244" lon="2.54092">
        <ele>143</ele>
        <time>2012-11-04T10:01:08Z</time>
      </trkpt>
      <trkpt lat="48.39256" lon="2.54123">
        <ele>142</ele>
        <time>2012-11-04T10:01:17Z</time>
      </trkpt>
      <trkpt lat="48.39206" lon="2.54204">
        <ele>143</ele>
        <time>2012-11-04T10:01:39Z</time>
      </trkpt>
      <trkpt lat="48.39212" lon="2.54245">
        <ele>142</ele>
        <time>2012-11-04T10:01:46Z</time>
      </trkpt>
      <trkpt lat="48.39203" lon="2.54316">
        <ele>142</ele>
        <time>2012-11-04T10:02:03Z</time>
      </trkpt>
      <trkpt lat="48.39209" lon="2.5436">
        <ele>137</ele>
        <time>2012-11-04T10:02:18Z</time>
      </trkpt>
      <trkpt lat="48.39175" lon="2.54411">
        <ele>128</ele>
        <time>2012-11-04T10:02:35Z</time>
      </trkpt>
      <trkpt lat="48.39165" lon="2.54474">
        <ele>125</ele>
        <time>2012-11-04T10:02:47Z</time>
      </trkpt>
      <trkpt lat="48.39153" lon="2.54513">
        <ele>123</ele>
        <time>2012-11-04T10:02:52Z</time>
      </trkpt>
      <trkpt lat="48.39156" lon="2.5456">
        <ele>119</ele>
        <time>2012-11-04T10:03:01Z</time>
      </trkpt>
      <trkpt lat="48.39172" lon="2.54601">
        <ele>115</ele>
        <time>2012-11-04T10:03:12Z</time>
      </trkpt>
      <trkpt lat="48.3916" lon="2.54785">
        <ele>108</ele>
        <time>2012-11-04T10:03:35Z</time>
      </trkpt>
      <trkpt lat="48.39175" lon="2.5488">
        <ele>108</ele>
        <time>2012-11-04T10:04:06Z</time>
      </trkpt>
      <trkpt lat="48.39152" lon="2.5492">
        <ele>106</ele>
        <time>2012-11-04T10:04:15Z</time>
      </trkpt>
      <trkpt lat="48.39151" lon="2.54941">
        <ele>105</ele>
        <time>2012-11-04T10:04:19Z</time>
      </trkpt>
      <trkpt lat="48.39157" lon="2.54959">
        <ele>105</ele>
        <time>2012-11-04T10:04:22Z</time>
      </trkpt>
      <trkpt lat="48.39269" lon="2.55081">
        <ele>105</ele>
        <time>2012-11-04T10:04:52Z</time>
      </trkpt>
      <trkpt lat="48.39369" lon="2.55212">
        <ele>103</ele>
        <time>2012-11-04T10:05:17Z</time>
      </trkpt>
      <trkpt lat="48.39383" lon="2.55221">
        <ele>103</ele>
        <time>2012-11-04T10:05:20Z</time>
      </trkpt>
      <trkpt lat="48.39391" lon="2.55219">
        <ele>103</ele>
        <time>2012-11-04T10:05:22Z</time>
      </trkpt>
      <trkpt lat="48.39402" lon="2.55203">
        <ele>103</ele>
        <time>2012-11-04T10:05:26Z</time>
      </trkpt>
      <trkpt lat="48.39401" lon="2.55182">
        <ele>103</ele>
        <time>2012-11-04T10:05:33Z</time>
      </trkpt>
      <trkpt lat="48.394" lon="2.55205">
        <ele>104</ele>
        <time>2012-11-04T10:05:40Z</time>
      </trkpt>
      <trkpt lat="48.39406" lon="2.55205">
        <ele>104</ele>
        <time>2012-11-04T10:05:43Z</time>
      </trkpt>
      <trkpt lat="48.39431" lon="2.5517">
        <ele>105</ele>
        <time>2012-11-04T10:06:00Z</time>
      </trkpt>
      <trkpt lat="48.39435" lon="2.55131">
        <ele>107</ele>
        <time>2012-11-04T10:06:20Z</time>
      </trkpt>
      <trkpt lat="48.39459" lon="2.55069">
        <ele>115</ele>
        <time>2012-11-04T10:07:01Z</time>
      </trkpt>
      <trkpt lat="48.39457" lon="2.54995">
        <ele>114</ele>
        <time>2012-11-04T10:07:39Z</time>
      </trkpt>
      <trkpt lat="48.39463" lon="2.54972">
        <ele>115</ele>
        <time>2012-11-04T10:07:48Z</time>
      </trkpt>
      <trkpt lat="48.39455" lon="2.54948">
        <ele>119</ele>
        <time>2012-11-04T10:08:22Z</time>
      </trkpt>
      <trkpt lat="48.39459" lon="2.54977">
        <ele>115</ele>
        <time>2012-11-04T10:08:57Z</time>
      </trkpt>
      <trkpt lat="48.3946" lon="2.54985">
        <ele>114</ele>
        <time>2012-11-04T10:08:59Z</time>
      </trkpt>
      <trkpt lat="48.39452" lon="2.55032">
        <ele>113</ele>
        <time>2012-11-04T10:09:16Z</time>
      </trkpt>
      <trkpt lat="48.39492" lon="2.55084">
        <ele>103</ele>
        <time>2012-11-04T10:09:42Z</time>
      </trkpt>
      <trkpt lat="48.3952" lon="2.55066">
        <ele>101</ele>
        <time>2012-11-04T10:09:55Z</time>
      </trkpt>
      <trkpt lat="48.39531" lon="2.55036">
        <ele>101</ele>
        <time>2012-11-04T10:10:30Z</time>
      </trkpt>
      <trkpt lat="48.39554" lon="2.55012">
        <ele>101</ele>
        <time>2012-11-04T10:10:37Z</time>
      </trkpt>
      <trkpt lat="48.39565" lon="2.54959">
        <ele>100</ele>
        <time>2012-11-04T10:10:47Z</time>
      </trkpt>
      <trkpt lat="48.39579" lon="2.54937">
        <ele>100</ele>
        <time>2012-11-04T10:10:51Z</time>
      </trkpt>
      <trkpt lat="48.39591" lon="2.54853">
        <ele>101</ele>
        <time>2012-11-04T10:11:04Z</time>
      </trkpt>
      <trkpt lat="48.39624" lon="2.54753">
        <ele>101</ele>
        <time>2012-11-04T10:11:22Z</time>
      </trkpt>
      <trkpt lat="48.39651" lon="2.54627">
        <ele>102</ele>
        <time>2012-11-04T10:11:41Z</time>
      </trkpt>
      <trkpt lat="48.39698" lon="2.54546">
        <ele>103</ele>
        <time>2012-11-04T10:11:57Z</time>
      </trkpt>
      <trkpt lat="48.39717" lon="2.54537">
        <ele>103</ele>
        <time>2012-11-04T10:12:01Z</time>
      </trkpt>
      <trkpt lat="48.3973" lon="2.5454">
        <ele>103</ele>
        <time>2012-11-04T10:12:03Z</time>
      </trkpt>
      <trkpt lat="48.39782" lon="2.5456">
        <ele>103</ele>
        <time>2012-11-04T10:12:14Z</time>
      </trkpt>
      <trkpt lat="48.39816" lon="2.54581">
        <ele>104</ele>
        <time>2012-11-04T10:12:22Z</time>
      </trkpt>
      <trkpt lat="48.39839" lon="2.54587">
        <ele>103</ele>
        <time>2012-11-04T10:12:27Z</time>
      </trkpt>
      <trkpt lat="48.3985" lon="2.54581">
        <ele>103</ele>
        <time>2012-11-04T10:12:29Z</time>
      </trkpt>
      <trkpt lat="48.39859" lon="2.54557">
        <ele>103</ele>
        <time>2012-11-04T10:12:33Z</time>
      </trkpt>
      <trkpt lat="48.39865" lon="2.54396">
        <ele>105</ele>
        <time>2012-11-04T10:13:04Z</time>
      </trkpt>
      <trkpt lat="48.39874" lon="2.54362">
        <ele>106</ele>
        <time>2012-11-04T10:13:10Z</time>
      </trkpt>
      <trkpt lat="48.39877" lon="2.54241">
        <ele>109</ele>
        <time>2012-11-04T10:13:30Z</time>
      </trkpt>
      <trkpt lat="48.39892" lon="2.54171">
        <ele>110</ele>
        <time>2012-11-04T10:13:42Z</time>
      </trkpt>
      <trkpt lat="48.39913" lon="2.54141">
        <ele>109</ele>
        <time>2012-11-04T10:13:49Z</time>
      </trkpt>
      <trkpt lat="48.40041" lon="2.54146">
        <ele>117</ele>
        <time>2012-11-04T10:14:17Z</time>
      </trkpt>
      <trkpt lat="48.40091" lon="2.54163">
        <ele>115</ele>
        <time>2012-11-04T10:14:29Z</time>
      </trkpt>
      <trkpt lat="48.40143" lon="2.54162">
        <ele>113</ele>
        <time>2012-11-04T10:14:36Z</time>
      </trkpt>
      <trkpt lat="48.40239" lon="2.5419">
        <ele>110</ele>
        <time>2012-11-04T10:14:54Z</time>
      </trkpt>
      <trkpt lat="48.40298" lon="2.54219">
        <ele>111</ele>
        <time>2012-11-04T10:15:14Z</time>
      </trkpt>
      <trkpt lat="48.40343" lon="2.54233">
        <ele>111</ele>
        <time>2012-11-04T10:15:24Z</time>
      </trkpt>
      <trkpt lat="48.40351" lon="2.54231">
        <ele>112</ele>
        <time>2012-11-04T10:15:26Z</time>
      </trkpt>
      <trkpt lat="48.40366" lon="2.54201">
        <ele>113</ele>
        <time>2012-11-04T10:15:30Z</time>
      </trkpt>
      <trkpt lat="48.4038" lon="2.54192">
        <ele>114</ele>
        <time>2012-11-04T10:15:32Z</time>
      </trkpt>
      <trkpt lat="48.4043" lon="2.54205">
        <ele>116</ele>
        <time>2012-11-04T10:15:39Z</time>
      </trkpt>
      <trkpt lat="48.40456" lon="2.54194">
        <ele>115</ele>
        <time>2012-11-04T10:15:43Z</time>
      </trkpt>
      <trkpt lat="48.40486" lon="2.54208">
        <ele>113</ele>
        <time>2012-11-04T10:15:47Z</time>
      </trkpt>
      <trkpt lat="48.40519" lon="2.54184">
        <ele>112</ele>
        <time>2012-11-04T10:15:51Z</time>
      </trkpt>
      <trkpt lat="48.40549" lon="2.5415">
        <ele>109</ele>
        <time>2012-11-04T10:15:55Z</time>
      </trkpt>
      <trkpt lat="48.40604" lon="2.54145">
        <ele>104</ele>
        <time>2012-11-04T10:16:02Z</time>
      </trkpt>
      <trkpt lat="48.40636" lon="2.54133">
        <ele>102</ele>
        <time>2012-11-04T10:16:06Z</time>
      </trkpt>
      <trkpt lat="48.40734" lon="2.54075">
        <ele>100</ele>
        <time>2012-11-04T10:16:20Z</time>
      </trkpt>
      <trkpt lat="48.40757" lon="2.54075">
        <ele>99</ele>
        <time>2012-11-04T10:16:23Z</time>
      </trkpt>
      <trkpt lat="48.40761" lon="2.5413">
        <ele>99</ele>
        <time>2012-11-04T10:16:33Z</time>
      </trkpt>
      <trkpt lat="48.40787" lon="2.54201">
        <ele>98</ele>
        <time>2012-11-04T10:17:26Z</time>
      </trkpt>
      <trkpt lat="48.40787" lon="2.54201">
        <ele>98</ele>
        <time>2012-11-04T10:17:28Z</time>
      </trkpt>
      <trkpt lat="48.40786" lon="2.54178">
        <ele>98</ele>
        <time>2012-11-04T10:17:41Z</time>
      </trkpt>
      <trkpt lat="48.40767" lon="2.54138">
        <ele>98</ele>
        <time>2012-11-04T10:17:51Z</time>
      </trkpt>
      <trkpt lat="48.40785" lon="2.54197">
        <ele>98</ele>
        <time>2012-11-04T10:18:06Z</time>
      </trkpt>
      <trkpt lat="48.40802" lon="2.54227">
        <ele>97</ele>
        <time>2012-11-04T10:18:10Z</time>
      </trkpt>
      <trkpt lat="48.40812" lon="2.54276">
        <ele>97</ele>
        <time>2012-11-04T10:18:16Z</time>
      </trkpt>
      <trkpt lat="48.40836" lon="2.5434">
        <ele>97</ele>
        <time>2012-11-04T10:18:24Z</time>
      </trkpt>
      <trkpt lat="48.40828" lon="2.54398">
        <ele>97</ele>
        <time>2012-11-04T10:18:31Z</time>
      </trkpt>
      <trkpt lat="48.40833" lon="2.54413">
        <ele>97</ele>
        <time>2012-11-04T10:18:33Z</time>
      </trkpt>
      <trkpt lat="48.40966" lon="2.54646">
        <ele>97</ele>
        <time>2012-11-04T10:19:18Z</time>
      </trkpt>
      <trkpt lat="48.41019" lon="2.54535">
        <ele>101</ele>
        <time>2012-11-04T10:19:49Z</time>
      </trkpt>
      <trkpt lat="48.41029" lon="2.54462">
        <ele>105</ele>
        <time>2012-11-04T10:20:07Z</time>
      </trkpt>
      <trkpt lat="48.41042" lon="2.54445">
        <ele>108</ele>
        <time>2012-11-04T10:20:18Z</time>
      </trkpt>
      <trkpt lat="48.41049" lon="2.54451">
        <ele>110</ele>
        <time>2012-11-04T10:20:42Z</time>
      </trkpt>
      <trkpt lat="48.41065" lon="2.54451">
        <ele>114</ele>
        <time>2012-11-04T10:21:11Z</time>
      </trkpt>
      <trkpt lat="48.41079" lon="2.54486">
        <ele>120</ele>
        <time>2012-11-04T10:21:52Z</time>
      </trkpt>
      <trkpt lat="48.41112" lon="2.54499">
        <ele>121</ele>
        <time>2012-11-04T10:22:35Z</time>
      </trkpt>
      <trkpt lat="48.41115" lon="2.54489">
        <ele>118</ele>
        <time>2012-11-04T10:22:40Z</time>
      </trkpt>
      <trkpt lat="48.41152" lon="2.54465">
        <ele>116</ele>
        <time>2012-11-04T10:22:54Z</time>
      </trkpt>
      <trkpt lat="48.41167" lon="2.54441">
        <ele>115</ele>
        <time>2012-11-04T10:23:04Z</time>
      </trkpt>
      <trkpt lat="48.41174" lon="2.54419">
        <ele>114</ele>
        <time>2012-11-04T10:23:09Z</time>
      </trkpt>
      <trkpt lat="48.41186" lon="2.54414">
        <ele>114</ele>
        <time>2012-11-04T10:23:13Z</time>
      </trkpt>
      <trkpt lat="48.4125" lon="2.54456">
        <ele>110</ele>
        <time>2012-11-04T10:23:24Z</time>
      </trkpt>
      <trkpt lat="48.4128" lon="2.54489">
        <ele>109</ele>
        <time>2012-11-04T10:23:29Z</time>
      </trkpt>
      <trkpt lat="48.41289" lon="2.54509">
        <ele>107</ele>
        <time>2012-11-04T10:23:33Z</time>
      </trkpt>
      <trkpt lat="48.41301" lon="2.54509">
        <ele>106</ele>
        <time>2012-11-04T10:23:35Z</time>
      </trkpt>
      <trkpt lat="48.41309" lon="2.54503">
        <ele>105</ele>
        <time>2012-11-04T10:23:37Z</time>
      </trkpt>
      <trkpt lat="48.41342" lon="2.54412">
        <ele>103</ele>
        <time>2012-11-04T10:23:50Z</time>
      </trkpt>
      <trkpt lat="48.41368" lon="2.54384">
        <ele>102</ele>
        <time>2012-11-04T10:23:55Z</time>
      </trkpt>
      <trkpt lat="48.41385" lon="2.54382">
        <ele>101</ele>
        <time>2012-11-04T10:23:58Z</time>
      </trkpt>
      <trkpt lat="48.41416" lon="2.54411">
        <ele>100</ele>
        <time>2012-11-04T10:24:07Z</time>
      </trkpt>
      <trkpt lat="48.41474" lon="2.54437">
        <ele>98</ele>
        <time>2012-11-04T10:24:16Z</time>
      </trkpt>
      <trkpt lat="48.41508" lon="2.5444">
        <ele>97</ele>
        <time>2012-11-04T10:24:22Z</time>
      </trkpt>
      <trkpt lat="48.41555" lon="2.54489">
        <ele>95</ele>
        <time>2012-11-04T10:24:37Z</time>
      </trkpt>
      <trkpt lat="48.41577" lon="2.54465">
        <ele>96</ele>
        <time>2012-11-04T10:24:44Z</time>
      </trkpt>
      <trkpt lat="48.41595" lon="2.54408">
        <ele>95</ele>
        <time>2012-11-04T10:24:53Z</time>
      </trkpt>
      <trkpt lat="48.41636" lon="2.54316">
        <ele>95</ele>
        <time>2012-11-04T10:25:09Z</time>
      </trkpt>
      <trkpt lat="48.41645" lon="2.54317">
        <ele>95</ele>
        <time>2012-11-04T10:25:12Z</time>
      </trkpt>
      <trkpt lat="48.41673" lon="2.54349">
        <ele>96</ele>
        <time>2012-11-04T10:25:22Z</time>
      </trkpt>
      <trkpt lat="48.41703" lon="2.5436">
        <ele>100</ele>
        <time>2012-11-04T10:25:32Z</time>
      </trkpt>
      <trkpt lat="48.41713" lon="2.54378">
        <ele>101</ele>
        <time>2012-11-04T10:25:36Z</time>
      </trkpt>
      <trkpt lat="48.41703" lon="2.54518">
        <ele>103</ele>
        <time>2012-11-04T10:25:57Z</time>
      </trkpt>
      <trkpt lat="48.41699" lon="2.54534">
        <ele>102</ele>
        <time>2012-11-04T10:25:59Z</time>
      </trkpt>
      <trkpt lat="48.41697" lon="2.5454">
        <ele>102</ele>
        <time>2012-11-04T10:26:00Z</time>
      </trkpt>
      <trkpt lat="48.41689" lon="2.54546">
        <ele>101</ele>
        <time>2012-11-04T10:26:02Z</time>
      </trkpt>
      <trkpt lat="48.41649" lon="2.54549">
        <ele>99</ele>
        <time>2012-11-04T10:26:09Z</time>
      </trkpt>
      <trkpt lat="48.41514" lon="2.54651">
        <ele>96</ele>
        <time>2012-11-04T10:26:33Z</time>
      </trkpt>
      <trkpt lat="48.41494" lon="2.5468">
        <ele>96</ele>
        <time>2012-11-04T10:26:38Z</time>
      </trkpt>
      <trkpt lat="48.41492" lon="2.54746">
        <ele>96</ele>
        <time>2012-11-04T10:26:46Z</time>
      </trkpt>
      <trkpt lat="48.41478" lon="2.5478">
        <ele>96</ele>
        <time>2012-11-04T10:26:54Z</time>
      </trkpt>
      <trkpt lat="48.41492" lon="2.54752">
        <ele>96</ele>
        <time>2012-11-04T10:27:06Z</time>
      </trkpt>
      <trkpt lat="48.41514" lon="2.54813">
        <ele>96</ele>
        <time>2012-11-04T10:27:18Z</time>
      </trkpt>
      <trkpt lat="48.41516" lon="2.54847">
        <ele>96</ele>
        <time>2012-11-04T10:27:23Z</time>
      </trkpt>
      <trkpt lat="48.41499" lon="2.54875">
        <ele>96</ele>
        <time>2012-11-04T10:27:29Z</time>
      </trkpt>
      <trkpt lat="48.41486" lon="2.54921">
        <ele>96</ele>
        <time>2012-11-04T10:27:37Z</time>
      </trkpt>
      <trkpt lat="48.41471" lon="2.54944">
        <ele>97</ele>
        <time>2012-11-04T10:27:42Z</time>
      </trkpt>
      <trkpt lat="48.41457" lon="2.5501">
        <ele>97</ele>
        <time>2012-11-04T10:27:55Z</time>
      </trkpt>
      <trkpt lat="48.41434" lon="2.5506">
        <ele>97</ele>
        <time>2012-11-04T10:28:04Z</time>
      </trkpt>
      <trkpt lat="48.41391" lon="2.55204">
        <ele>98</ele>
        <time>2012-11-04T10:28:26Z</time>
      </trkpt>
      <trkpt lat="48.41393" lon="2.5522">
        <ele>98</ele>
        <time>2012-11-04T10:28:28Z</time>
      </trkpt>
      <trkpt lat="48.41407" lon="2.55243">
        <ele>98</ele>
        <time>2012-11-04T10:28:33Z</time>
      </trkpt>
      <trkpt lat="48.41433" lon="2.55259">
        <ele>98</ele>
        <time>2012-11-04T10:28:39Z</time>
      </trkpt>
      <trkpt lat="48.41496" lon="2.55275">
        <ele>98</ele>
        <time>2012-11-04T10:28:52Z</time>
      </trkpt>
      <trkpt lat="48.41531" lon="2.55314">
        <ele>99</ele>
        <time>2012-11-04T10:29:00Z</time>
      </trkpt>
      <trkpt lat="48.41614" lon="2.55379">
        <ele>99</ele>
        <time>2012-11-04T10:29:18Z</time>
      </trkpt>
      <trkpt lat="48.41633" lon="2.55424">
        <ele>99</ele>
        <time>2012-11-04T10:29:25Z</time>
      </trkpt>
      <trkpt lat="48.41645" lon="2.55504">
        <ele>100</ele>
        <time>2012-11-04T10:29:36Z</time>
      </trkpt>
      <trkpt lat="48.41619" lon="2.55655">
        <ele>100</ele>
        <time>2012-11-04T10:29:56Z</time>
      </trkpt>
      <trkpt lat="48.41563" lon="2.55726">
        <ele>100</ele>
        <time>2012-11-04T10:30:13Z</time>
      </trkpt>
      <trkpt lat="48.41545" lon="2.5576">
        <ele>100</ele>
        <time>2012-11-04T10:30:31Z</time>
      </trkpt>
      <trkpt lat="48.41521" lon="2.55778">
        <ele>101</ele>
        <time>2012-11-04T10:30:41Z</time>
      </trkpt>
      <trkpt lat="48.4151" lon="2.55797">
        <ele>100</ele>
        <time>2012-11-04T10:30:49Z</time>
      </trkpt>
      <trkpt lat="48.4151" lon="2.55813">
        <ele>100</ele>
        <time>2012-11-04T10:31:06Z</time>
      </trkpt>
      <trkpt lat="48.41518" lon="2.55799">
        <ele>100</ele>
        <time>2012-11-04T10:31:30Z</time>
      </trkpt>
      <trkpt lat="48.41517" lon="2.55796">
        <ele>100</ele>
        <time>2012-11-04T10:34:30Z</time>
      </trkpt>
      <trkpt lat="48.41505" lon="2.5582">
        <ele>99</ele>
        <time>2012-11-04T10:35:04Z</time>
      </trkpt>
      <trkpt lat="48.41494" lon="2.55875">
        <ele>100</ele>
        <time>2012-11-04T10:35:16Z</time>
      </trkpt>
      <trkpt lat="48.41464" lon="2.55951">
        <ele>100</ele>
        <time>2012-11-04T10:35:32Z</time>
      </trkpt>
      <trkpt lat="48.41462" lon="2.56018">
        <ele>99</ele>
        <time>2012-11-04T10:35:44Z</time>
      </trkpt>
      <trkpt lat="48.41442" lon="2.56106">
        <ele>100</ele>
        <time>2012-11-04T10:35:59Z</time>
      </trkpt>
      <trkpt lat="48.41455" lon="2.56133">
        <ele>100</ele>
        <time>2012-11-04T10:36:06Z</time>
      </trkpt>
      <trkpt lat="48.41477" lon="2.5614">
        <ele>100</ele>
        <time>2012-11-04T10:36:11Z</time>
      </trkpt>
      <trkpt lat="48.41506" lon="2.56165">
        <ele>100</ele>
        <time>2012-11-04T10:36:19Z</time>
      </trkpt>
      <trkpt lat="48.41453" lon="2.56276">
        <ele>100</ele>
        <time>2012-11-04T10:36:40Z</time>
      </trkpt>
      <trkpt lat="48.41405" lon="2.56271">
        <ele>100</ele>
        <time>2012-11-04T10:36:50Z</time>
      </trkpt>
      <trkpt lat="48.41328" lon="2.56288">
        <ele>101</ele>
        <time>2012-11-04T10:37:06Z</time>
      </trkpt>
      <trkpt lat="48.41297" lon="2.5629">
        <ele>101</ele>
        <time>2012-11-04T10:37:12Z</time>
      </trkpt>
      <trkpt lat="48.41275" lon="2.56282">
        <ele>101</ele>
        <time>2012-11-04T10:37:16Z</time>
      </trkpt>
      <trkpt lat="48.41208" lon="2.56287">
        <ele>101</ele>
        <time>2012-11-04T10:37:29Z</time>
      </trkpt>
      <trkpt lat="48.41173" lon="2.56472">
        <ele>102</ele>
        <time>2012-11-04T10:37:59Z</time>
      </trkpt>
      <trkpt lat="48.41097" lon="2.56458">
        <ele>101</ele>
        <time>2012-11-04T10:38:17Z</time>
      </trkpt>
      <trkpt lat="48.41071" lon="2.56471">
        <ele>101</ele>
        <time>2012-11-04T10:38:23Z</time>
      </trkpt>
      <trkpt lat="48.40984" lon="2.56493">
        <ele>101</ele>
        <time>2012-11-04T10:38:39Z</time>
      </trkpt>
      <trkpt lat="48.40952" lon="2.56518">
        <ele>101</ele>
        <time>2012-11-04T10:38:45Z</time>
      </trkpt>
      <trkpt lat="48.40921" lon="2.56526">
        <ele>100</ele>
        <time>2012-11-04T10:38:50Z</time>
      </trkpt>
      <trkpt lat="48.40844" lon="2.56587">
        <ele>99</ele>
        <time>2012-11-04T10:39:06Z</time>
      </trkpt>
      <trkpt lat="48.40783" lon="2.56586">
        <ele>98</ele>
        <time>2012-11-04T10:39:16Z</time>
      </trkpt>
      <trkpt lat="48.40733" lon="2.56602">
        <ele>99</ele>
        <time>2012-11-04T10:39:25Z</time>
      </trkpt>
      <trkpt lat="48.40699" lon="2.56601">
        <ele>100</ele>
        <time>2012-11-04T10:39:30Z</time>
      </trkpt>
      <trkpt lat="48.40671" lon="2.56614">
        <ele>100</ele>
        <time>2012-11-04T10:39:35Z</time>
      </trkpt>
      <trkpt lat="48.40544" lon="2.56633">
        <ele>99</ele>
        <time>2012-11-04T10:39:57Z</time>
      </trkpt>
      <trkpt lat="48.40542" lon="2.56659">
        <ele>99</ele>
        <time>2012-11-04T10:40:01Z</time>
      </trkpt>
      <trkpt lat="48.40578" lon="2.56748">
        <ele>100</ele>
        <time>2012-11-04T10:40:14Z</time>
      </trkpt>
      <trkpt lat="48.4062" lon="2.56889">
        <ele>100</ele>
        <time>2012-11-04T10:40:32Z</time>
      </trkpt>
      <trkpt lat="48.40665" lon="2.57074">
        <ele>100</ele>
        <time>2012-11-04T10:40:55Z</time>
      </trkpt>
      <trkpt lat="48.40704" lon="2.5716">
        <ele>100</ele>
        <time>2012-11-04T10:41:12Z</time>
      </trkpt>
      <trkpt lat="48.4068" lon="2.57233">
        <ele>101</ele>
        <time>2012-11-04T10:41:24Z</time>
      </trkpt>
      <trkpt lat="48.40665" lon="2.57339">
        <ele>101</ele>
        <time>2012-11-04T10:41:41Z</time>
      </trkpt>
      <trkpt lat="48.40635" lon="2.57445">
        <ele>101</ele>
        <time>2012-11-04T10:41:57Z</time>
      </trkpt>
      <trkpt lat="48.40599" lon="2.57691">
        <ele>101</ele>
        <time>2012-11-04T10:42:35Z</time>
      </trkpt>
      <trkpt lat="48.40548" lon="2.57884">
        <ele>101</ele>
        <time>2012-11-04T10:43:01Z</time>
      </trkpt>
      <trkpt lat="48.4054" lon="2.57909">
        <ele>101</ele>
        <time>2012-11-04T10:43:04Z</time>
      </trkpt>
      <trkpt lat="48.40537" lon="2.57941">
        <ele>101</ele>
        <time>2012-11-04T10:43:08Z</time>
      </trkpt>
      <trkpt lat="48.40509" lon="2.58009">
        <ele>101</ele>
        <time>2012-11-04T10:43:19Z</time>
      </trkpt>
      <trkpt lat="48.40483" lon="2.58098">
        <ele>100</ele>
        <time>2012-11-04T10:43:39Z</time>
      </trkpt>
      <trkpt lat="48.40458" lon="2.58224">
        <ele>100</ele>
        <time>2012-11-04T10:44:00Z</time>
      </trkpt>
      <trkpt lat="48.40458" lon="2.5826">
        <ele>101</ele>
        <time>2012-11-04T10:44:06Z</time>
      </trkpt>
      <trkpt lat="48.40442" lon="2.5835">
        <ele>101</ele>
        <time>2012-11-04T10:44:21Z</time>
      </trkpt>
      <trkpt lat="48.40413" lon="2.58434">
        <ele>101</ele>
        <time>2012-11-04T10:44:35Z</time>
      </trkpt>
      <trkpt lat="48.40398" lon="2.58465">
        <ele>102</ele>
        <time>2012-11-04T10:44:43Z</time>
      </trkpt>
      <trkpt lat="48.40382" lon="2.58477">
        <ele>102</ele>
        <time>2012-11-04T10:44:48Z</time>
      </trkpt>
      <trkpt lat="48.40355" lon="2.58466">
        <ele>102</ele>
        <time>2012-11-04T10:44:55Z</time>
      </trkpt>
      <trkpt lat="48.40271" lon="2.58415">
        <ele>102</ele>
        <time>2012-11-04T10:45:15Z</time>
      </trkpt>
      <trkpt lat="48.40264" lon="2.58419">
        <ele>102</ele>
        <time>2012-11-04T10:45:17Z</time>
      </trkpt>
      <trkpt lat="48.40248" lon="2.5847">
        <ele>103</ele>
        <time>2012-11-04T10:45:29Z</time>
      </trkpt>
      <trkpt lat="48.40255" lon="2.58556">
        <ele>103</ele>
        <time>2012-11-04T10:45:52Z</time>
      </trkpt>
      <trkpt lat="48.40245" lon="2.58763">
        <ele>105</ele>
        <time>2012-11-04T10:46:36Z</time>
      </trkpt>
      <trkpt lat="48.40319" lon="2.58815">
        <ele>107</ele>
        <time>2012-11-04T10:47:07Z</time>
      </trkpt>
      <trkpt lat="48.40374" lon="2.58839">
        <ele>117</ele>
        <time>2012-11-04T10:47:46Z</time>
      </trkpt>
      <trkpt lat="48.40382" lon="2.58858">
        <ele>121</ele>
        <time>2012-11-04T10:48:05Z</time>
      </trkpt>
      <trkpt lat="48.40431" lon="2.58904">
        <ele>119</ele>
        <time>2012-11-04T10:48:31Z</time>
      </trkpt>
      <trkpt lat="48.40511" lon="2.58944">
        <ele>114</ele>
        <time>2012-11-04T10:49:11Z</time>
      </trkpt>
      <trkpt lat="48.40549" lon="2.59">
        <ele>116</ele>
        <time>2012-11-04T10:49:28Z</time>
      </trkpt>
      <trkpt lat="48.40566" lon="2.59012">
        <ele>119</ele>
        <time>2012-11-04T10:49:35Z</time>
      </trkpt>
      <trkpt lat="48.40593" lon="2.59006">
        <ele>121</ele>
        <time>2012-11-04T10:49:44Z</time>
      </trkpt>
      <trkpt lat="48.40621" lon="2.59022">
        <ele>125</ele>
        <time>2012-11-04T10:49:54Z</time>
      </trkpt>
      <trkpt lat="48.40633" lon="2.5908">
        <ele>131</ele>
        <time>2012-11-04T10:50:11Z</time>
      </trkpt>
      <trkpt lat="48.40619" lon="2.59118">
        <ele>133</ele>
        <time>2012-11-04T10:50:21Z</time>
      </trkpt>
      <trkpt lat="48.40614" lon="2.59164">
        <ele>138</ele>
        <time>2012-11-04T10:50:31Z</time>
      </trkpt>
      <trkpt lat="48.40633" lon="2.59198">
        <ele>142</ele>
        <time>2012-11-04T10:50:42Z</time>
      </trkpt>
      <trkpt lat="48.40656" lon="2.59208">
        <ele>145</ele>
        <time>2012-11-04T10:51:00Z</time>
      </trkpt>
      <trkpt lat="48.4066" lon="2.59191">
        <ele>147</ele>
        <time>2012-11-04T10:51:25Z</time>
      </trkpt>
      <trkpt lat="48.40672" lon="2.59184">
        <ele>147</ele>
        <time>2012-11-04T10:51:32Z</time>
      </trkpt>
      <trkpt lat="48.40694" lon="2.59173">
        <ele>148</ele>
        <time>2012-11-04T10:51:43Z</time>
      </trkpt>
      <trkpt lat="48.40722" lon="2.59119">
        <ele>141</ele>
        <time>2012-11-04T10:52:07Z</time>
      </trkpt>
      <trkpt lat="48.40746" lon="2.59124">
        <ele>137</ele>
        <time>2012-11-04T10:52:13Z</time>
      </trkpt>
      <trkpt lat="48.40752" lon="2.59114">
        <ele>135</ele>
        <time>2012-11-04T10:52:16Z</time>
      </trkpt>
      <trkpt lat="48.40732" lon="2.58995">
        <ele>143</ele>
        <time>2012-11-04T10:53:08Z</time>
      </trkpt>
      <trkpt lat="48.40717" lon="2.58969">
        <ele>151</ele>
        <time>2012-11-04T10:54:55Z</time>
      </trkpt>
      <trkpt lat="48.40701" lon="2.58864">
        <ele>148</ele>
        <time>2012-11-04T10:55:43Z</time>
      </trkpt>
      <trkpt lat="48.40702" lon="2.58852">
        <ele>146</ele>
        <time>2012-11-04T10:55:46Z</time>
      </trkpt>
      <trkpt lat="48.40715" lon="2.58832">
        <ele>143</ele>
        <time>2012-11-04T10:55:52Z</time>
      </trkpt>
      <trkpt lat="48.40736" lon="2.5883">
        <ele>140</ele>
        <time>2012-11-04T10:55:57Z</time>
      </trkpt>
      <trkpt lat="48.40747" lon="2.58817">
        <ele>138</ele>
        <time>2012-11-04T10:56:01Z</time>
      </trkpt>
      <trkpt lat="48.40745" lon="2.58796">
        <ele>136</ele>
        <time>2012-11-04T10:56:06Z</time>
      </trkpt>
      <trkpt lat="48.40722" lon="2.58768">
        <ele>130</ele>
        <time>2012-11-04T10:56:14Z</time>
      </trkpt>
      <trkpt lat="48.40724" lon="2.58734">
        <ele>128</ele>
        <time>2012-11-04T10:56:19Z</time>
      </trkpt>
      <trkpt lat="48.40732" lon="2.58712">
        <ele>127</ele>
        <time>2012-11-04T10:56:24Z</time>
      </trkpt>
      <trkpt lat="48.40747" lon="2.58703">
        <ele>127</ele>
        <time>2012-11-04T10:56:29Z</time>
      </trkpt>
      <trkpt lat="48.40759" lon="2.58673">
        <ele>126</ele>
        <time>2012-11-04T10:56:34Z</time>
      </trkpt>
      <trkpt lat="48.40823" lon="2.58594">
        <ele>119</ele>
        <time>2012-11-04T10:56:52Z</time>
      </trkpt>
      <trkpt lat="48.40842" lon="2.58549">
        <ele>118</ele>
        <time>2012-11-04T10:56:58Z</time>
      </trkpt>
      <trkpt lat="48.40881" lon="2.5854">
        <ele>115</ele>
        <time>2012-11-04T10:57:07Z</time>
      </trkpt>
      <trkpt lat="48.409" lon="2.58514">
        <ele>114</ele>
        <time>2012-11-04T10:57:11Z</time>
      </trkpt>
      <trkpt lat="48.40914" lon="2.58441">
        <ele>117</ele>
        <time>2012-11-04T10:57:32Z</time>
      </trkpt>
      <trkpt lat="48.40917" lon="2.58471">
        <ele>116</ele>
        <time>2012-11-04T10:57:47Z</time>
      </trkpt>
      <trkpt lat="48.40909" lon="2.58513">
        <ele>113</ele>
        <time>2012-11-04T10:57:59Z</time>
      </trkpt>
      <trkpt lat="48.40948" lon="2.58497">
        <ele>109</ele>
        <time>2012-11-04T10:58:10Z</time>
      </trkpt>
      <trkpt lat="48.40977" lon="2.58495">
        <ele>107</ele>
        <time>2012-11-04T10:58:16Z</time>
      </trkpt>
      <trkpt lat="48.41004" lon="2.58526">
        <ele>105</ele>
        <time>2012-11-04T10:58:25Z</time>
      </trkpt>
      <trkpt lat="48.41034" lon="2.58538">
        <ele>105</ele>
        <time>2012-11-04T10:58:34Z</time>
      </trkpt>
      <trkpt lat="48.41038" lon="2.58557">
        <ele>104</ele>
        <time>2012-11-04T10:58:39Z</time>
      </trkpt>
      <trkpt lat="48.41023" lon="2.58666">
        <ele>104</ele>
        <time>2012-11-04T10:58:57Z</time>
      </trkpt>
      <trkpt lat="48.41018" lon="2.58785">
        <ele>105</ele>
        <time>2012-11-04T10:59:16Z</time>
      </trkpt>
      <trkpt lat="48.40996" lon="2.58884">
        <ele>105</ele>
        <time>2012-11-04T10:59:33Z</time>
      </trkpt>
      <trkpt lat="48.40981" lon="2.59055">
        <ele>106</ele>
        <time>2012-11-04T11:00:00Z</time>
      </trkpt>
      <trkpt lat="48.40983" lon="2.59076">
        <ele>106</ele>
        <time>2012-11-04T11:00:03Z</time>
      </trkpt>
      <trkpt lat="48.40987" lon="2.59173">
        <ele>106</ele>
        <time>2012-11-04T11:00:18Z</time>
      </trkpt>
      <trkpt lat="48.4098" lon="2.59333">
        <ele>106</ele>
        <time>2012-11-04T11:00:41Z</time>
      </trkpt>
      <trkpt lat="48.40932" lon="2.59789">
        <ele>108</ele>
        <time>2012-11-04T11:01:45Z</time>
      </trkpt>
      <trkpt lat="48.40893" lon="2.59965">
        <ele>109</ele>
        <time>2012-11-04T11:02:16Z</time>
      </trkpt>
      <trkpt lat="48.40867" lon="2.60028">
        <ele>110</ele>
        <time>2012-11-04T11:02:27Z</time>
      </trkpt>
      <trkpt lat="48.40836" lon="2.60161">
        <ele>113</ele>
        <time>2012-11-04T11:02:50Z</time>
      </trkpt>
      <trkpt lat="48.40814" lon="2.60398">
        <ele>117</ele>
        <time>2012-11-04T11:03:28Z</time>
      </trkpt>
      <trkpt lat="48.40771" lon="2.60734">
        <ele>127</ele>
        <time>2012-11-04T11:04:22Z</time>
      </trkpt>
      <trkpt lat="48.40765" lon="2.60844">
        <ele>125</ele>
        <time>2012-11-04T11:04:35Z</time>
      </trkpt>
      <trkpt lat="48.40794" lon="2.60906">
        <ele>130</ele>
        <time>2012-11-04T11:05:11Z</time>
      </trkpt>
      <trkpt lat="48.40807" lon="2.60913">
        <ele>135</ele>
        <time>2012-11-04T11:05:44Z</time>
      </trkpt>
      <trkpt lat="48.40809" lon="2.60926">
        <ele>136</ele>
        <time>2012-11-04T11:05:58Z</time>
      </trkpt>
      <trkpt lat="48.40816" lon="2.60927">
        <ele>137</ele>
        <time>2012-11-04T11:06:08Z</time>
      </trkpt>
      <trkpt lat="48.40834" lon="2.60951">
        <ele>142</ele>
        <time>2012-11-04T11:06:44Z</time>
      </trkpt>
      <trkpt lat="48.40834" lon="2.60959">
        <ele>142</ele>
        <time>2012-11-04T11:06:51Z</time>
      </trkpt>
      <trkpt lat="48.40844" lon="2.60966">
        <ele>140</ele>
        <time>2012-11-04T11:07:04Z</time>
      </trkpt>
      <trkpt lat="48.40866" lon="2.61037">
        <ele>129</ele>
        <time>2012-11-04T11:07:26Z</time>
      </trkpt>
      <trkpt lat="48.40868" lon="2.61051">
        <ele>127</ele>
        <time>2012-11-04T11:07:31Z</time>
      </trkpt>
      <trkpt lat="48.40862" lon="2.61058">
        <ele>124</ele>
        <time>2012-11-04T11:08:21Z</time>
      </trkpt>
      <trkpt lat="48.40863" lon="2.61061">
        <ele>124</ele>
        <time>2012-11-04T11:08:34Z</time>
      </trkpt>
      <trkpt lat="48.40871" lon="2.61103">
        <ele>122</ele>
        <time>2012-11-04T11:08:41Z</time>
      </trkpt>
      <trkpt lat="48.4088" lon="2.61221">
        <ele>118</ele>
        <time>2012-11-04T11:08:53Z</time>
      </trkpt>
      <trkpt lat="48.40915" lon="2.614">
        <ele>117</ele>
        <time>2012-11-04T11:09:24Z</time>
      </trkpt>
      <trkpt lat="48.40913" lon="2.61439">
        <ele>118</ele>
        <time>2012-11-04T11:09:30Z</time>
      </trkpt>
      <trkpt lat="48.40895" lon="2.61497">
        <ele>121</ele>
        <time>2012-11-04T11:09:41Z</time>
      </trkpt>
      <trkpt lat="48.40858" lon="2.61568">
        <ele>122</ele>
        <time>2012-11-04T11:09:56Z</time>
      </trkpt>
      <trkpt lat="48.40846" lon="2.61608">
        <ele>122</ele>
        <time>2012-11-04T11:10:01Z</time>
      </trkpt>
      <trkpt lat="48.408" lon="2.61871">
        <ele>123</ele>
        <time>2012-11-04T11:10:40Z</time>
      </trkpt>
      <trkpt lat="48.40804" lon="2.62063">
        <ele>125</ele>
        <time>2012-11-04T11:11:07Z</time>
      </trkpt>
      <trkpt lat="48.40816" lon="2.62127">
        <ele>127</ele>
        <time>2012-11-04T11:11:20Z</time>
      </trkpt>
      <trkpt lat="48.40812" lon="2.62151">
        <ele>127</ele>
        <time>2012-11-04T11:11:24Z</time>
      </trkpt>
      <trkpt lat="48.40778" lon="2.62273">
        <ele>127</ele>
        <time>2012-11-04T11:11:41Z</time>
      </trkpt>
      <trkpt lat="48.40717" lon="2.62434">
        <ele>128</ele>
        <time>2012-11-04T11:12:05Z</time>
      </trkpt>
      <trkpt lat="48.4072" lon="2.62453">
        <ele>128</ele>
        <time>2012-11-04T11:12:26Z</time>
      </trkpt>
      <trkpt lat="48.40741" lon="2.62485">
        <ele>129</ele>
        <time>2012-11-04T11:13:01Z</time>
      </trkpt>
      <trkpt lat="48.40763" lon="2.62536">
        <ele>130</ele>
        <time>2012-11-04T11:13:19Z</time>
      </trkpt>
      <trkpt lat="48.40779" lon="2.62601">
        <ele>133</ele>
        <time>2012-11-04T11:13:42Z</time>
      </trkpt>
      <trkpt lat="48.40798" lon="2.62625">
        <ele>135</ele>
        <time>2012-11-04T11:13:58Z</time>
      </trkpt>
      <trkpt lat="48.40809" lon="2.6278">
        <ele>145</ele>
        <time>2012-11-04T11:15:21Z</time>
      </trkpt>
      <trkpt lat="48.408" lon="2.62799">
        <ele>143</ele>
        <time>2012-11-04T11:15:33Z</time>
      </trkpt>
      <trkpt lat="48.40802" lon="2.62811">
        <ele>141</ele>
        <time>2012-11-04T11:15:45Z</time>
      </trkpt>
      <trkpt lat="48.40782" lon="2.62838">
        <ele>138</ele>
        <time>2012-11-04T11:17:00Z</time>
      </trkpt>
      <trkpt lat="48.40783" lon="2.62842">
        <ele>137</ele>
        <time>2012-11-04T11:17:05Z</time>
      </trkpt>
      <trkpt lat="48.40765" lon="2.62878">
        <ele>134</ele>
        <time>2012-11-04T11:17:17Z</time>
      </trkpt>
      <trkpt lat="48.40762" lon="2.62927">
        <ele>134</ele>
        <time>2012-11-04T11:17:32Z</time>
      </trkpt>
      <trkpt lat="48.40746" lon="2.62994">
        <ele>139</ele>
        <time>2012-11-04T11:18:52Z</time>
      </trkpt>
      <trkpt lat="48.40738" lon="2.62989">
        <ele>138</ele>
        <time>2012-11-04T11:19:02Z</time>
      </trkpt>
      <trkpt lat="48.40734" lon="2.62995">
        <ele>138</ele>
        <time>2012-11-04T11:19:06Z</time>
      </trkpt>
      <trkpt lat="48.40731" lon="2.63039">
        <ele>145</ele>
        <time>2012-11-04T11:19:48Z</time>
      </trkpt>
      <trkpt lat="48.40719" lon="2.6304">
        <ele>148</ele>
        <time>2012-11-04T11:20:16Z</time>
      </trkpt>
      <trkpt lat="48.40715" lon="2.63033">
        <ele>152</ele>
        <time>2012-11-04T11:21:10Z</time>
      </trkpt>
      <trkpt lat="48.40713" lon="2.6304">
        <ele>151</ele>
        <time>2012-11-04T11:21:36Z</time>
      </trkpt>
      <trkpt lat="48.40691" lon="2.63038">
        <ele>158</ele>
        <time>2012-11-04T11:22:25Z</time>
      </trkpt>
      <trkpt lat="48.40686" lon="2.6307">
        <ele>157</ele>
        <time>2012-11-04T11:23:03Z</time>
      </trkpt>
      <trkpt lat="48.40668" lon="2.63082">
        <ele>158</ele>
        <time>2012-11-04T11:23:18Z</time>
      </trkpt>
      <trkpt lat="48.4067" lon="2.63137">
        <ele>159</ele>
        <time>2012-11-04T11:23:42Z</time>
      </trkpt>
      <trkpt lat="48.40707" lon="2.63155">
        <ele>158</ele>
        <time>2012-11-04T11:24:05Z</time>
      </trkpt>
      <trkpt lat="48.40733" lon="2.63145">
        <ele>159</ele>
        <time>2012-11-04T11:24:17Z</time>
      </trkpt>
      <trkpt lat="48.40762" lon="2.63143">
        <ele>158</ele>
        <time>2012-11-04T11:24:29Z</time>
      </trkpt>
      <trkpt lat="48.40781" lon="2.63155">
        <ele>159</ele>
        <time>2012-11-04T11:24:51Z</time>
      </trkpt>
      <trkpt lat="48.40822" lon="2.6316">
        <ele>160</ele>
        <time>2012-11-04T11:25:04Z</time>
      </trkpt>
      <trkpt lat="48.40842" lon="2.63172">
        <ele>162</ele>
        <time>2012-11-04T11:25:15Z</time>
      </trkpt>
      <trkpt lat="48.40855" lon="2.6317">
        <ele>161</ele>
        <time>2012-11-04T11:25:22Z</time>
      </trkpt>
      <trkpt lat="48.4087" lon="2.63145">
        <ele>160</ele>
        <time>2012-11-04T11:25:36Z</time>
      </trkpt>
      <trkpt lat="48.40884" lon="2.63119">
        <ele>159</ele>
        <time>2012-11-04T11:25:46Z</time>
      </trkpt>
      <trkpt lat="48.40894" lon="2.63043">
        <ele>158</ele>
        <time>2012-11-04T11:26:02Z</time>
      </trkpt>
      <trkpt lat="48.40908" lon="2.63021">
        <ele>160</ele>
        <time>2012-11-04T11:26:10Z</time>
      </trkpt>
      <trkpt lat="48.40909" lon="2.62958">
        <ele>161</ele>
        <time>2012-11-04T11:27:30Z</time>
      </trkpt>
      <trkpt lat="48.40934" lon="2.62916">
        <ele>157</ele>
        <time>2012-11-04T11:28:01Z</time>
      </trkpt>
      <trkpt lat="48.40942" lon="2.62927">
        <ele>156</ele>
        <time>2012-11-04T11:29:34Z</time>
      </trkpt>
      <trkpt lat="48.40984" lon="2.62941">
        <ele>157</ele>
        <time>2012-11-04T11:29:51Z</time>
      </trkpt>
      <trkpt lat="48.40995" lon="2.62953">
        <ele>156</ele>
        <time>2012-11-04T11:29:55Z</time>
      </trkpt>
      <trkpt lat="48.41013" lon="2.6299">
        <ele>157</ele>
        <time>2012-11-04T11:30:03Z</time>
      </trkpt>
      <trkpt lat="48.41024" lon="2.63058">
        <ele>158</ele>
        <time>2012-11-04T11:30:18Z</time>
      </trkpt>
      <trkpt lat="48.41041" lon="2.63036">
        <ele>159</ele>
        <time>2012-11-04T11:30:30Z</time>
      </trkpt>
      <trkpt lat="48.4106" lon="2.63058">
        <ele>159</ele>
        <time>2012-11-04T11:30:37Z</time>
      </trkpt>
      <trkpt lat="48.41099" lon="2.63126">
        <ele>159</ele>
        <time>2012-11-04T11:30:53Z</time>
      </trkpt>
      <trkpt lat="48.41109" lon="2.6314">
        <ele>159</ele>
        <time>2012-11-04T11:30:58Z</time>
      </trkpt>
      <trkpt lat="48.41124" lon="2.63143">
        <ele>159</ele>
        <time>2012-11-04T11:31:03Z</time>
      </trkpt>
      <trkpt lat="48.41125" lon="2.63161">
        <ele>158</ele>
        <time>2012-11-04T11:31:08Z</time>
      </trkpt>
      <trkpt lat="48.41171" lon="2.63241">
        <ele>158</ele>
        <time>2012-11-04T11:31:27Z</time>
      </trkpt>
      <trkpt lat="48.41175" lon="2.6326">
        <ele>158</ele>
        <time>2012-11-04T11:31:33Z</time>
      </trkpt>
      <trkpt lat="48.41235" lon="2.63246">
        <ele>157</ele>
        <time>2012-11-04T11:31:49Z</time>
      </trkpt>
      <trkpt lat="48.41293" lon="2.63246">
        <ele>156</ele>
        <time>2012-11-04T11:31:59Z</time>
      </trkpt>
      <trkpt lat="48.41362" lon="2.63237">
        <ele>155</ele>
        <time>2012-11-04T11:32:11Z</time>
      </trkpt>
      <trkpt lat="48.41482" lon="2.63207">
        <ele>148</ele>
        <time>2012-11-04T11:32:34Z</time>
      </trkpt>
      <trkpt lat="48.41507" lon="2.63212">
        <ele>146</ele>
        <time>2012-11-04T11:32:42Z</time>
      </trkpt>
      <trkpt lat="48.41649" lon="2.63586">
        <ele>158</ele>
        <time>2012-11-04T11:34:07Z</time>
      </trkpt>
      <trkpt lat="48.41738" lon="2.63825">
        <ele>161</ele>
        <time>2012-11-04T11:34:49Z</time>
      </trkpt>
      <trkpt lat="48.41792" lon="2.63944">
        <ele>160</ele>
        <time>2012-11-04T11:35:10Z</time>
      </trkpt>
      <trkpt lat="48.42433" lon="2.64458">
        <ele>137</ele>
        <time>2012-11-04T11:42:38Z</time>
      </trkpt>
      <trkpt lat="48.42434" lon="2.64457">
        <ele>137</ele>
        <time>2012-11-04T11:46:36Z</time>
      </trkpt>
      <trkpt lat="48.42503" lon="2.64613">
        <ele>139</ele>
        <time>2012-11-04T11:48:33Z</time>
      </trkpt>
      <trkpt lat="48.4253" lon="2.64656">
        <ele>139</ele>
        <time>2012-11-04T11:48:44Z</time>
      </trkpt>
      <trkpt lat="48.42561" lon="2.64727">
        <ele>142</ele>
        <time>2012-11-04T11:49:03Z</time>
      </trkpt>
      <trkpt lat="48.42577" lon="2.64745">
        <ele>144</ele>
        <time>2012-11-04T11:49:11Z</time>
      </trkpt>
      <trkpt lat="48.42652" lon="2.64689">
        <ele>149</ele>
        <time>2012-11-04T11:49:44Z</time>
      </trkpt>
      <trkpt lat="48.42673" lon="2.6468">
        <ele>153</ele>
        <time>2012-11-04T11:49:52Z</time>
      </trkpt>
      <trkpt lat="48.42756" lon="2.64612">
        <ele>158</ele>
        <time>2012-11-04T11:50:28Z</time>
      </trkpt>
      <trkpt lat="48.42856" lon="2.64373">
        <ele>149</ele>
        <time>2012-11-04T11:51:04Z</time>
      </trkpt>
      <trkpt lat="48.42876" lon="2.64341">
        <ele>148</ele>
        <time>2012-11-04T11:51:09Z</time>
      </trkpt>
      <trkpt lat="48.42893" lon="2.64316">
        <ele>148</ele>
        <time>2012-11-04T11:51:12Z</time>
      </trkpt>
      <trkpt lat="48.4292" lon="2.64143">
        <ele>151</ele>
        <time>2012-11-04T11:51:39Z</time>
      </trkpt>
      <trkpt lat="48.42947" lon="2.64089">
        <ele>154</ele>
        <time>2012-11-04T11:51:52Z</time>
      </trkpt>
      <trkpt lat="48.42958" lon="2.6405">
        <ele>155</ele>
        <time>2012-11-04T11:51:59Z</time>
      </trkpt>
      <trkpt lat="48.42974" lon="2.63956">
        <ele>157</ele>
        <time>2012-11-04T11:52:17Z</time>
      </trkpt>
      <trkpt lat="48.42963" lon="2.63886">
        <ele>157</ele>
        <time>2012-11-04T11:52:28Z</time>
      </trkpt>
      <trkpt lat="48.42997" lon="2.6377">
        <ele>159</ele>
        <time>2012-11-04T11:52:51Z</time>
      </trkpt>
      <trkpt lat="48.43015" lon="2.63598">
        <ele>159</ele>
        <time>2012-11-04T11:53:25Z</time>
      </trkpt>
      <trkpt lat="48.43055" lon="2.63494">
        <ele>159</ele>
        <time>2012-11-04T11:53:48Z</time>
      </trkpt>
      <trkpt lat="48.43054" lon="2.63432">
        <ele>159</ele>
        <time>2012-11-04T11:54:02Z</time>
      </trkpt>
      <trkpt lat="48.43078" lon="2.6333">
        <ele>158</ele>
        <time>2012-11-04T11:54:23Z</time>
      </trkpt>
      <trkpt lat="48.43094" lon="2.63276">
        <ele>158</ele>
        <time>2012-11-04T11:54:46Z</time>
      </trkpt>
      <trkpt lat="48.43092" lon="2.63294">
        <ele>159</ele>
        <time>2012-11-04T11:55:14Z</time>
      </trkpt>
      <trkpt lat="48.43133" lon="2.63356">
        <ele>160</ele>
        <time>2012-11-04T11:55:56Z</time>
      </trkpt>
      <trkpt lat="48.43151" lon="2.63365">
        <ele>159</ele>
        <time>2012-11-04T11:56:08Z</time>
      </trkpt>
      <trkpt lat="48.43156" lon="2.63354">
        <ele>159</ele>
        <time>2012-11-04T11:56:14Z</time>
      </trkpt>
      <trkpt lat="48.43157" lon="2.63333">
        <ele>156</ele>
        <time>2012-11-04T11:56:45Z</time>
      </trkpt>
      <trkpt lat="48.43168" lon="2.63302">
        <ele>151</ele>
        <time>2012-11-04T11:57:29Z</time>
      </trkpt>
      <trkpt lat="48.43167" lon="2.63273">
        <ele>148</ele>
        <time>2012-11-04T11:58:01Z</time>
      </trkpt>
      <trkpt lat="48.43176" lon="2.63266">
        <ele>146</ele>
        <time>2012-11-04T11:58:31Z</time>
      </trkpt>
      <trkpt lat="48.43177" lon="2.63244">
        <ele>143</ele>
        <time>2012-11-04T11:59:03Z</time>
      </trkpt>
      <trkpt lat="48.43165" lon="2.63219">
        <ele>141</ele>
        <time>2012-11-04T11:59:23Z</time>
      </trkpt>
      <trkpt lat="48.43184" lon="2.63187">
        <ele>138</ele>
        <time>2012-11-04T11:59:31Z</time>
      </trkpt>
      <trkpt lat="48.43191" lon="2.63152">
        <ele>136</ele>
        <time>2012-11-04T11:59:39Z</time>
      </trkpt>
      <trkpt lat="48.43192" lon="2.63152">
        <ele>135</ele>
        <time>2012-11-04T11:59:40Z</time>
      </trkpt>
      <trkpt lat="48.43236" lon="2.63084">
        <ele>130</ele>
        <time>2012-11-04T12:00:00Z</time>
      </trkpt>
      <trkpt lat="48.43278" lon="2.62916">
        <ele>125</ele>
        <time>2012-11-04T12:00:30Z</time>
      </trkpt>
      <trkpt lat="48.43282" lon="2.62858">
        <ele>123</ele>
        <time>2012-11-04T12:00:46Z</time>
      </trkpt>
      <trkpt lat="48.43297" lon="2.62829">
        <ele>121</ele>
        <time>2012-11-04T12:00:57Z</time>
      </trkpt>
      <trkpt lat="48.43325" lon="2.62817">
        <ele>118</ele>
        <time>2012-11-04T12:01:07Z</time>
      </trkpt>
      <trkpt lat="48.43351" lon="2.62792">
        <ele>116</ele>
        <time>2012-11-04T12:01:21Z</time>
      </trkpt>
      <trkpt lat="48.43374" lon="2.62802">
        <ele>114</ele>
        <time>2012-11-04T12:01:35Z</time>
      </trkpt>
      <trkpt lat="48.43409" lon="2.62784">
        <ele>114</ele>
        <time>2012-11-04T12:01:44Z</time>
      </trkpt>
      <trkpt lat="48.43436" lon="2.6278">
        <ele>113</ele>
        <time>2012-11-04T12:01:50Z</time>
      </trkpt>
      <trkpt lat="48.43452" lon="2.62785">
        <ele>113</ele>
        <time>2012-11-04T12:01:55Z</time>
      </trkpt>
      <trkpt lat="48.43465" lon="2.62775">
        <ele>113</ele>
        <time>2012-11-04T12:02:01Z</time>
      </trkpt>
      <trkpt lat="48.4348" lon="2.62782">
        <ele>112</ele>
        <time>2012-11-04T12:02:06Z</time>
      </trkpt>
      <trkpt lat="48.43517" lon="2.62825">
        <ele>112</ele>
        <time>2012-11-04T12:02:19Z</time>
      </trkpt>
      <trkpt lat="48.43533" lon="2.62821">
        <ele>112</ele>
        <time>2012-11-04T12:02:24Z</time>
      </trkpt>
      <trkpt lat="48.43559" lon="2.62771">
        <ele>112</ele>
        <time>2012-11-04T12:02:33Z</time>
      </trkpt>
      <trkpt lat="48.43582" lon="2.62688">
        <ele>111</ele>
        <time>2012-11-04T12:02:47Z</time>
      </trkpt>
      <trkpt lat="48.43632" lon="2.62644">
        <ele>110</ele>
        <time>2012-11-04T12:03:00Z</time>
      </trkpt>
      <trkpt lat="48.43695" lon="2.62485">
        <ele>109</ele>
        <time>2012-11-04T12:03:23Z</time>
      </trkpt>
      <trkpt lat="48.43711" lon="2.62461">
        <ele>109</ele>
        <time>2012-11-04T12:03:27Z</time>
      </trkpt>
      <trkpt lat="48.43744" lon="2.6244">
        <ele>109</ele>
        <time>2012-11-04T12:03:34Z</time>
      </trkpt>
      <trkpt lat="48.43811" lon="2.62444">
        <ele>110</ele>
        <time>2012-11-04T12:03:51Z</time>
      </trkpt>
      <trkpt lat="48.43895" lon="2.62512">
        <ele>109</ele>
        <time>2012-11-04T12:04:08Z</time>
      </trkpt>
      <trkpt lat="48.43905" lon="2.62514">
        <ele>109</ele>
        <time>2012-11-04T12:04:10Z</time>
      </trkpt>
      <trkpt lat="48.43927" lon="2.62507">
        <ele>109</ele>
        <time>2012-11-04T12:04:15Z</time>
      </trkpt>
      <trkpt lat="48.43952" lon="2.62517">
        <ele>109</ele>
        <time>2012-11-04T12:04:20Z</time>
      </trkpt>
      <trkpt lat="48.43967" lon="2.62511">
        <ele>109</ele>
        <time>2012-11-04T12:04:23Z</time>
      </trkpt>
      <trkpt lat="48.43996" lon="2.62477">
        <ele>108</ele>
        <time>2012-11-04T12:04:30Z</time>
      </trkpt>
      <trkpt lat="48.44025" lon="2.62467">
        <ele>107</ele>
        <time>2012-11-04T12:04:35Z</time>
      </trkpt>
      <trkpt lat="48.44045" lon="2.62432">
        <ele>106</ele>
        <time>2012-11-04T12:04:44Z</time>
      </trkpt>
      <trkpt lat="48.44055" lon="2.62432">
        <ele>105</ele>
        <time>2012-11-04T12:08:11Z</time>
      </trkpt>
      <trkpt lat="48.44056" lon="2.62429">
        <ele>104</ele>
        <time>2012-11-04T12:08:37Z</time>
      </trkpt>
    </trkseg>
  </trk>
</gpx>